<?xml version="1.0" encoding="UTF-8" standalone="no" ?>
<gpx xmlns="http://www.topografix.com/GPX/1/1" xmlns:xsi="http://www.w3.org/2001/XMLSchema-instance" xsi:schemaLocation="http://www.topografix.com/GPX/1/1 http://www.topografix.com/GPX/1/1/gpx.xsd" version="1.1" creator="VisuGPX - https://www.visugpx.com">
  <metadata>
    <name>GR3a Les Oeufs de Bouc- col de la Cadière-col du Trayas -Pont Sarrazin</name>
    <desc><![CDATA[Départ Parking B480- B481- puis à droite vers B488 – B487 - B486-, prendre à droite vers Col des TROIS TERMES puis piquer à gauche vers Col de LA CADIERE, prendre le GR51 vers le col du TRAYAS B501 – puis vers col des MONGES B500 – Prendre chemin à gauche en montant vers PONT SARRAZIN B483 – B482 (chapelle) puis retour au parking B480 – B481. IPB : 56]]></desc>
  </metadata>
  <trk>
    <name><![CDATA[Les Oeufs de Bouc- col de la Cadière-col du Trayas -Pont Sarrazin]]></name>
    <trkseg>
      <trkpt lat="43.5249" lon="6.91237">
        <ele>62</ele>
        <time>2024-10-10T08:24:01+02:00</time>
      </trkpt>
      <trkpt lat="43.52487" lon="6.91217">
        <ele>54</ele>
        <time>2024-10-10T08:26:01+02:00</time>
      </trkpt>
      <trkpt lat="43.52488" lon="6.91198">
        <ele>60</ele>
        <time>2024-10-10T08:34:01+02:00</time>
      </trkpt>
      <trkpt lat="43.52482" lon="6.91178">
        <ele>60</ele>
        <time>2024-10-10T08:34:16+02:00</time>
      </trkpt>
      <trkpt lat="43.52474" lon="6.91157">
        <ele>60</ele>
        <time>2024-10-10T08:34:36+02:00</time>
      </trkpt>
      <trkpt lat="43.5247" lon="6.91138">
        <ele>60</ele>
        <time>2024-10-10T08:34:51+02:00</time>
      </trkpt>
      <trkpt lat="43.52461" lon="6.9112">
        <ele>60</ele>
        <time>2024-10-10T08:35:11+02:00</time>
      </trkpt>
      <trkpt lat="43.52452" lon="6.91099">
        <ele>60</ele>
        <time>2024-10-10T08:35:21+02:00</time>
      </trkpt>
      <trkpt lat="43.52444" lon="6.9108">
        <ele>60</ele>
        <time>2024-10-10T08:35:31+02:00</time>
      </trkpt>
      <trkpt lat="43.52435" lon="6.91063">
        <ele>59</ele>
        <time>2024-10-10T08:35:51+02:00</time>
      </trkpt>
      <trkpt lat="43.52423" lon="6.91048">
        <ele>59</ele>
        <time>2024-10-10T08:36:06+02:00</time>
      </trkpt>
      <trkpt lat="43.5241" lon="6.91041">
        <ele>59</ele>
        <time>2024-10-10T08:36:26+02:00</time>
      </trkpt>
      <trkpt lat="43.52396" lon="6.91035">
        <ele>60</ele>
        <time>2024-10-10T08:36:41+02:00</time>
      </trkpt>
      <trkpt lat="43.52384" lon="6.91026">
        <ele>60</ele>
        <time>2024-10-10T08:37:06+02:00</time>
      </trkpt>
      <trkpt lat="43.52372" lon="6.91011">
        <ele>61</ele>
        <time>2024-10-10T08:37:21+02:00</time>
      </trkpt>
      <trkpt lat="43.52366" lon="6.90992">
        <ele>62</ele>
        <time>2024-10-10T08:37:36+02:00</time>
      </trkpt>
      <trkpt lat="43.52359" lon="6.90976">
        <ele>63</ele>
        <time>2024-10-10T08:37:51+02:00</time>
      </trkpt>
      <trkpt lat="43.52348" lon="6.90961">
        <ele>65</ele>
        <time>2024-10-10T08:38:06+02:00</time>
      </trkpt>
      <trkpt lat="43.5234" lon="6.9094">
        <ele>66</ele>
        <time>2024-10-10T08:38:26+02:00</time>
      </trkpt>
      <trkpt lat="43.52331" lon="6.90926">
        <ele>68</ele>
        <time>2024-10-10T08:38:41+02:00</time>
      </trkpt>
      <trkpt lat="43.5232" lon="6.90911">
        <ele>70</ele>
        <time>2024-10-10T08:38:56+02:00</time>
      </trkpt>
      <trkpt lat="43.52305" lon="6.90898">
        <ele>73</ele>
        <time>2024-10-10T08:39:16+02:00</time>
      </trkpt>
      <trkpt lat="43.52291" lon="6.90891">
        <ele>76</ele>
        <time>2024-10-10T08:39:31+02:00</time>
      </trkpt>
      <trkpt lat="43.52279" lon="6.90883">
        <ele>79</ele>
        <time>2024-10-10T08:39:46+02:00</time>
      </trkpt>
      <trkpt lat="43.52265" lon="6.9088">
        <ele>81</ele>
        <time>2024-10-10T08:40:01+02:00</time>
      </trkpt>
      <trkpt lat="43.52247" lon="6.90876">
        <ele>83</ele>
        <time>2024-10-10T08:40:21+02:00</time>
      </trkpt>
      <trkpt lat="43.5223" lon="6.90869">
        <ele>86</ele>
        <time>2024-10-10T08:40:41+02:00</time>
      </trkpt>
      <trkpt lat="43.52216" lon="6.90859">
        <ele>88</ele>
        <time>2024-10-10T08:41:01+02:00</time>
      </trkpt>
      <trkpt lat="43.52201" lon="6.90845">
        <ele>90</ele>
        <time>2024-10-10T08:41:21+02:00</time>
      </trkpt>
      <trkpt lat="43.5219" lon="6.90832">
        <ele>92</ele>
        <time>2024-10-10T08:41:36+02:00</time>
      </trkpt>
      <trkpt lat="43.52179" lon="6.90811">
        <ele>93</ele>
        <time>2024-10-10T08:41:56+02:00</time>
      </trkpt>
      <trkpt lat="43.52168" lon="6.90797">
        <ele>95</ele>
        <time>2024-10-10T08:43:16+02:00</time>
      </trkpt>
      <trkpt lat="43.5216" lon="6.9078">
        <ele>96</ele>
        <time>2024-10-10T08:43:41+02:00</time>
      </trkpt>
      <trkpt lat="43.52148" lon="6.90771">
        <ele>97</ele>
        <time>2024-10-10T08:44:16+02:00</time>
      </trkpt>
      <trkpt lat="43.52134" lon="6.90763">
        <ele>98</ele>
        <time>2024-10-10T08:44:31+02:00</time>
      </trkpt>
      <trkpt lat="43.52119" lon="6.90753">
        <ele>99</ele>
        <time>2024-10-10T08:44:46+02:00</time>
      </trkpt>
      <trkpt lat="43.52105" lon="6.90746">
        <ele>100</ele>
        <time>2024-10-10T08:45:01+02:00</time>
      </trkpt>
      <trkpt lat="43.52091" lon="6.90736">
        <ele>101</ele>
        <time>2024-10-10T08:45:16+02:00</time>
      </trkpt>
      <trkpt lat="43.52078" lon="6.90731">
        <ele>102</ele>
        <time>2024-10-10T08:45:31+02:00</time>
      </trkpt>
      <trkpt lat="43.52065" lon="6.90723">
        <ele>103</ele>
        <time>2024-10-10T08:45:46+02:00</time>
      </trkpt>
      <trkpt lat="43.52051" lon="6.90712">
        <ele>104</ele>
        <time>2024-10-10T08:46:06+02:00</time>
      </trkpt>
      <trkpt lat="43.52036" lon="6.90699">
        <ele>105</ele>
        <time>2024-10-10T08:46:21+02:00</time>
      </trkpt>
      <trkpt lat="43.52021" lon="6.90689">
        <ele>105</ele>
        <time>2024-10-10T08:46:36+02:00</time>
      </trkpt>
      <trkpt lat="43.52008" lon="6.9068">
        <ele>106</ele>
        <time>2024-10-10T08:46:51+02:00</time>
      </trkpt>
      <trkpt lat="43.51995" lon="6.90669">
        <ele>106</ele>
        <time>2024-10-10T08:47:16+02:00</time>
      </trkpt>
      <trkpt lat="43.51982" lon="6.90657">
        <ele>105</ele>
        <time>2024-10-10T08:47:31+02:00</time>
      </trkpt>
      <trkpt lat="43.51972" lon="6.90641">
        <ele>105</ele>
        <time>2024-10-10T08:48:26+02:00</time>
      </trkpt>
      <trkpt lat="43.51966" lon="6.90625">
        <ele>103</ele>
        <time>2024-10-10T08:49:36+02:00</time>
      </trkpt>
      <trkpt lat="43.51959" lon="6.90606">
        <ele>102</ele>
        <time>2024-10-10T08:50:21+02:00</time>
      </trkpt>
      <trkpt lat="43.51963" lon="6.90586">
        <ele>101</ele>
        <time>2024-10-10T08:50:36+02:00</time>
      </trkpt>
      <trkpt lat="43.51964" lon="6.90565">
        <ele>100</ele>
        <time>2024-10-10T08:50:56+02:00</time>
      </trkpt>
      <trkpt lat="43.51963" lon="6.90545">
        <ele>100</ele>
        <time>2024-10-10T08:51:21+02:00</time>
      </trkpt>
      <trkpt lat="43.51979" lon="6.90551">
        <ele>100</ele>
        <time>2024-10-10T08:51:51+02:00</time>
      </trkpt>
      <trkpt lat="43.51977" lon="6.90532">
        <ele>100</ele>
        <time>2024-10-10T08:52:31+02:00</time>
      </trkpt>
      <trkpt lat="43.51978" lon="6.90509">
        <ele>101</ele>
        <time>2024-10-10T08:52:51+02:00</time>
      </trkpt>
      <trkpt lat="43.51972" lon="6.90487">
        <ele>102</ele>
        <time>2024-10-10T08:53:11+02:00</time>
      </trkpt>
      <trkpt lat="43.51968" lon="6.90466">
        <ele>104</ele>
        <time>2024-10-10T08:53:31+02:00</time>
      </trkpt>
      <trkpt lat="43.51968" lon="6.90442">
        <ele>106</ele>
        <time>2024-10-10T08:53:51+02:00</time>
      </trkpt>
      <trkpt lat="43.51958" lon="6.90423">
        <ele>109</ele>
        <time>2024-10-10T08:54:11+02:00</time>
      </trkpt>
      <trkpt lat="43.51944" lon="6.9042">
        <ele>112</ele>
        <time>2024-10-10T08:54:31+02:00</time>
      </trkpt>
      <trkpt lat="43.51931" lon="6.90411">
        <ele>116</ele>
        <time>2024-10-10T08:54:56+02:00</time>
      </trkpt>
      <trkpt lat="43.51913" lon="6.90407">
        <ele>121</ele>
        <time>2024-10-10T08:55:26+02:00</time>
      </trkpt>
      <trkpt lat="43.51899" lon="6.90402">
        <ele>126</ele>
        <time>2024-10-10T08:56:01+02:00</time>
      </trkpt>
      <trkpt lat="43.51883" lon="6.90396">
        <ele>131</ele>
        <time>2024-10-10T08:56:21+02:00</time>
      </trkpt>
      <trkpt lat="43.51868" lon="6.90391">
        <ele>136</ele>
        <time>2024-10-10T08:56:46+02:00</time>
      </trkpt>
      <trkpt lat="43.51853" lon="6.90385">
        <ele>140</ele>
        <time>2024-10-10T08:57:16+02:00</time>
      </trkpt>
      <trkpt lat="43.51839" lon="6.90389">
        <ele>145</ele>
        <time>2024-10-10T08:58:06+02:00</time>
      </trkpt>
      <trkpt lat="43.51826" lon="6.90379">
        <ele>148</ele>
        <time>2024-10-10T08:58:41+02:00</time>
      </trkpt>
      <trkpt lat="43.51812" lon="6.90375">
        <ele>152</ele>
        <time>2024-10-10T08:59:01+02:00</time>
      </trkpt>
      <trkpt lat="43.51795" lon="6.90372">
        <ele>155</ele>
        <time>2024-10-10T08:59:26+02:00</time>
      </trkpt>
      <trkpt lat="43.5178" lon="6.90368">
        <ele>158</ele>
        <time>2024-10-10T08:59:46+02:00</time>
      </trkpt>
      <trkpt lat="43.51764" lon="6.90359">
        <ele>161</ele>
        <time>2024-10-10T09:00:11+02:00</time>
      </trkpt>
      <trkpt lat="43.51748" lon="6.90356">
        <ele>163</ele>
        <time>2024-10-10T09:00:41+02:00</time>
      </trkpt>
      <trkpt lat="43.51735" lon="6.90349">
        <ele>166</ele>
        <time>2024-10-10T09:01:01+02:00</time>
      </trkpt>
      <trkpt lat="43.51721" lon="6.90342">
        <ele>169</ele>
        <time>2024-10-10T09:01:26+02:00</time>
      </trkpt>
      <trkpt lat="43.51705" lon="6.9034">
        <ele>171</ele>
        <time>2024-10-10T09:01:46+02:00</time>
      </trkpt>
      <trkpt lat="43.5169" lon="6.90331">
        <ele>174</ele>
        <time>2024-10-10T09:02:16+02:00</time>
      </trkpt>
      <trkpt lat="43.51678" lon="6.90323">
        <ele>177</ele>
        <time>2024-10-10T09:02:46+02:00</time>
      </trkpt>
      <trkpt lat="43.51666" lon="6.90313">
        <ele>180</ele>
        <time>2024-10-10T09:03:01+02:00</time>
      </trkpt>
      <trkpt lat="43.51656" lon="6.90298">
        <ele>183</ele>
        <time>2024-10-10T09:05:36+02:00</time>
      </trkpt>
      <trkpt lat="43.5165" lon="6.90281">
        <ele>185</ele>
        <time>2024-10-10T09:05:51+02:00</time>
      </trkpt>
      <trkpt lat="43.51642" lon="6.90263">
        <ele>187</ele>
        <time>2024-10-10T09:06:11+02:00</time>
      </trkpt>
      <trkpt lat="43.51636" lon="6.90242">
        <ele>189</ele>
        <time>2024-10-10T09:06:41+02:00</time>
      </trkpt>
      <trkpt lat="43.5163" lon="6.90224">
        <ele>189</ele>
        <time>2024-10-10T09:07:06+02:00</time>
      </trkpt>
      <trkpt lat="43.51626" lon="6.90202">
        <ele>189</ele>
        <time>2024-10-10T09:07:26+02:00</time>
      </trkpt>
      <trkpt lat="43.51626" lon="6.90181">
        <ele>188</ele>
        <time>2024-10-10T09:07:46+02:00</time>
      </trkpt>
      <trkpt lat="43.5163" lon="6.90159">
        <ele>187</ele>
        <time>2024-10-10T09:08:11+02:00</time>
      </trkpt>
      <trkpt lat="43.51636" lon="6.90141">
        <ele>185</ele>
        <time>2024-10-10T09:08:31+02:00</time>
      </trkpt>
      <trkpt lat="43.51643" lon="6.90121">
        <ele>185</ele>
        <time>2024-10-10T09:08:51+02:00</time>
      </trkpt>
      <trkpt lat="43.51649" lon="6.90103">
        <ele>184</ele>
        <time>2024-10-10T09:09:11+02:00</time>
      </trkpt>
      <trkpt lat="43.51651" lon="6.90083">
        <ele>184</ele>
        <time>2024-10-10T09:09:26+02:00</time>
      </trkpt>
      <trkpt lat="43.51661" lon="6.90063">
        <ele>184</ele>
        <time>2024-10-10T09:09:41+02:00</time>
      </trkpt>
      <trkpt lat="43.51666" lon="6.90045">
        <ele>186</ele>
        <time>2024-10-10T09:09:56+02:00</time>
      </trkpt>
      <trkpt lat="43.51668" lon="6.90022">
        <ele>188</ele>
        <time>2024-10-10T09:10:11+02:00</time>
      </trkpt>
      <trkpt lat="43.51671" lon="6.90004">
        <ele>190</ele>
        <time>2024-10-10T09:10:26+02:00</time>
      </trkpt>
      <trkpt lat="43.51676" lon="6.89982">
        <ele>194</ele>
        <time>2024-10-10T09:10:46+02:00</time>
      </trkpt>
      <trkpt lat="43.51676" lon="6.89958">
        <ele>198</ele>
        <time>2024-10-10T09:11:11+02:00</time>
      </trkpt>
      <trkpt lat="43.5168" lon="6.8994">
        <ele>203</ele>
        <time>2024-10-10T09:11:41+02:00</time>
      </trkpt>
      <trkpt lat="43.51684" lon="6.89919">
        <ele>207</ele>
        <time>2024-10-10T09:12:16+02:00</time>
      </trkpt>
      <trkpt lat="43.51684" lon="6.89899">
        <ele>210</ele>
        <time>2024-10-10T09:12:41+02:00</time>
      </trkpt>
      <trkpt lat="43.51677" lon="6.89877">
        <ele>212</ele>
        <time>2024-10-10T09:13:06+02:00</time>
      </trkpt>
      <trkpt lat="43.51668" lon="6.89862">
        <ele>214</ele>
        <time>2024-10-10T09:13:31+02:00</time>
      </trkpt>
      <trkpt lat="43.51678" lon="6.89841">
        <ele>217</ele>
        <time>2024-10-10T09:15:41+02:00</time>
      </trkpt>
      <trkpt lat="43.51683" lon="6.89821">
        <ele>217</ele>
        <time>2024-10-10T09:17:56+02:00</time>
      </trkpt>
      <trkpt lat="43.51693" lon="6.89805">
        <ele>218</ele>
        <time>2024-10-10T09:19:26+02:00</time>
      </trkpt>
      <trkpt lat="43.51698" lon="6.89787">
        <ele>219</ele>
        <time>2024-10-10T09:20:11+02:00</time>
      </trkpt>
      <trkpt lat="43.51706" lon="6.89768">
        <ele>220</ele>
        <time>2024-10-10T09:23:01+02:00</time>
      </trkpt>
      <trkpt lat="43.51716" lon="6.89753">
        <ele>221</ele>
        <time>2024-10-10T09:23:31+02:00</time>
      </trkpt>
      <trkpt lat="43.51718" lon="6.89735">
        <ele>223</ele>
        <time>2024-10-10T09:23:46+02:00</time>
      </trkpt>
      <trkpt lat="43.51717" lon="6.89714">
        <ele>224</ele>
        <time>2024-10-10T09:24:06+02:00</time>
      </trkpt>
      <trkpt lat="43.51708" lon="6.89696">
        <ele>225</ele>
        <time>2024-10-10T09:24:26+02:00</time>
      </trkpt>
      <trkpt lat="43.51694" lon="6.89684">
        <ele>227</ele>
        <time>2024-10-10T09:24:46+02:00</time>
      </trkpt>
      <trkpt lat="43.51681" lon="6.89685">
        <ele>228</ele>
        <time>2024-10-10T09:25:01+02:00</time>
      </trkpt>
      <trkpt lat="43.51664" lon="6.89695">
        <ele>229</ele>
        <time>2024-10-10T09:25:21+02:00</time>
      </trkpt>
      <trkpt lat="43.51652" lon="6.8971">
        <ele>230</ele>
        <time>2024-10-10T09:25:36+02:00</time>
      </trkpt>
      <trkpt lat="43.51638" lon="6.89718">
        <ele>231</ele>
        <time>2024-10-10T09:25:51+02:00</time>
      </trkpt>
      <trkpt lat="43.51624" lon="6.89725">
        <ele>232</ele>
        <time>2024-10-10T09:26:06+02:00</time>
      </trkpt>
      <trkpt lat="43.51608" lon="6.89729">
        <ele>233</ele>
        <time>2024-10-10T09:26:21+02:00</time>
      </trkpt>
      <trkpt lat="43.51592" lon="6.89727">
        <ele>234</ele>
        <time>2024-10-10T09:26:36+02:00</time>
      </trkpt>
      <trkpt lat="43.51576" lon="6.89725">
        <ele>234</ele>
        <time>2024-10-10T09:26:51+02:00</time>
      </trkpt>
      <trkpt lat="43.5156" lon="6.8972">
        <ele>235</ele>
        <time>2024-10-10T09:27:06+02:00</time>
      </trkpt>
      <trkpt lat="43.51545" lon="6.89705">
        <ele>235</ele>
        <time>2024-10-10T09:27:21+02:00</time>
      </trkpt>
      <trkpt lat="43.51534" lon="6.89688">
        <ele>235</ele>
        <time>2024-10-10T09:27:36+02:00</time>
      </trkpt>
      <trkpt lat="43.51525" lon="6.89674">
        <ele>234</ele>
        <time>2024-10-10T09:27:56+02:00</time>
      </trkpt>
      <trkpt lat="43.51515" lon="6.89658">
        <ele>234</ele>
        <time>2024-10-10T09:28:11+02:00</time>
      </trkpt>
      <trkpt lat="43.51505" lon="6.8964">
        <ele>233</ele>
        <time>2024-10-10T09:28:26+02:00</time>
      </trkpt>
      <trkpt lat="43.5149" lon="6.89628">
        <ele>233</ele>
        <time>2024-10-10T09:28:41+02:00</time>
      </trkpt>
      <trkpt lat="43.51476" lon="6.89614">
        <ele>232</ele>
        <time>2024-10-10T09:28:56+02:00</time>
      </trkpt>
      <trkpt lat="43.51468" lon="6.89596">
        <ele>232</ele>
        <time>2024-10-10T09:29:11+02:00</time>
      </trkpt>
      <trkpt lat="43.51462" lon="6.89575">
        <ele>232</ele>
        <time>2024-10-10T09:29:31+02:00</time>
      </trkpt>
      <trkpt lat="43.51453" lon="6.89558">
        <ele>232</ele>
        <time>2024-10-10T09:29:46+02:00</time>
      </trkpt>
      <trkpt lat="43.51437" lon="6.89542">
        <ele>232</ele>
        <time>2024-10-10T09:30:01+02:00</time>
      </trkpt>
      <trkpt lat="43.51422" lon="6.8953">
        <ele>233</ele>
        <time>2024-10-10T09:32:41+02:00</time>
      </trkpt>
      <trkpt lat="43.51407" lon="6.89526">
        <ele>234</ele>
        <time>2024-10-10T09:32:56+02:00</time>
      </trkpt>
      <trkpt lat="43.51389" lon="6.89521">
        <ele>234</ele>
        <time>2024-10-10T09:33:11+02:00</time>
      </trkpt>
      <trkpt lat="43.51375" lon="6.89519">
        <ele>235</ele>
        <time>2024-10-10T09:33:21+02:00</time>
      </trkpt>
      <trkpt lat="43.51357" lon="6.89518">
        <ele>236</ele>
        <time>2024-10-10T09:33:36+02:00</time>
      </trkpt>
      <trkpt lat="43.51341" lon="6.89511">
        <ele>236</ele>
        <time>2024-10-10T09:33:51+02:00</time>
      </trkpt>
      <trkpt lat="43.51328" lon="6.89501">
        <ele>237</ele>
        <time>2024-10-10T09:34:06+02:00</time>
      </trkpt>
      <trkpt lat="43.51312" lon="6.89499">
        <ele>238</ele>
        <time>2024-10-10T09:34:21+02:00</time>
      </trkpt>
      <trkpt lat="43.51295" lon="6.895">
        <ele>240</ele>
        <time>2024-10-10T09:34:36+02:00</time>
      </trkpt>
      <trkpt lat="43.51281" lon="6.89492">
        <ele>241</ele>
        <time>2024-10-10T09:34:56+02:00</time>
      </trkpt>
      <trkpt lat="43.51265" lon="6.89486">
        <ele>242</ele>
        <time>2024-10-10T09:35:11+02:00</time>
      </trkpt>
      <trkpt lat="43.51254" lon="6.89473">
        <ele>244</ele>
        <time>2024-10-10T09:35:26+02:00</time>
      </trkpt>
      <trkpt lat="43.51243" lon="6.89462">
        <ele>246</ele>
        <time>2024-10-10T09:35:41+02:00</time>
      </trkpt>
      <trkpt lat="43.51234" lon="6.89447">
        <ele>248</ele>
        <time>2024-10-10T09:36:01+02:00</time>
      </trkpt>
      <trkpt lat="43.51229" lon="6.89427">
        <ele>249</ele>
        <time>2024-10-10T09:36:16+02:00</time>
      </trkpt>
      <trkpt lat="43.51221" lon="6.89408">
        <ele>251</ele>
        <time>2024-10-10T09:36:36+02:00</time>
      </trkpt>
      <trkpt lat="43.51216" lon="6.89389">
        <ele>252</ele>
        <time>2024-10-10T09:36:51+02:00</time>
      </trkpt>
      <trkpt lat="43.51206" lon="6.89376">
        <ele>254</ele>
        <time>2024-10-10T09:37:06+02:00</time>
      </trkpt>
      <trkpt lat="43.51193" lon="6.89368">
        <ele>255</ele>
        <time>2024-10-10T09:37:31+02:00</time>
      </trkpt>
      <trkpt lat="43.51178" lon="6.89362">
        <ele>256</ele>
        <time>2024-10-10T09:37:41+02:00</time>
      </trkpt>
      <trkpt lat="43.51164" lon="6.89362">
        <ele>257</ele>
        <time>2024-10-10T09:37:56+02:00</time>
      </trkpt>
      <trkpt lat="43.5115" lon="6.89362">
        <ele>259</ele>
        <time>2024-10-10T09:38:11+02:00</time>
      </trkpt>
      <trkpt lat="43.51136" lon="6.89361">
        <ele>261</ele>
        <time>2024-10-10T09:38:26+02:00</time>
      </trkpt>
      <trkpt lat="43.51122" lon="6.89366">
        <ele>263</ele>
        <time>2024-10-10T09:38:41+02:00</time>
      </trkpt>
      <trkpt lat="43.51107" lon="6.89368">
        <ele>265</ele>
        <time>2024-10-10T09:38:56+02:00</time>
      </trkpt>
      <trkpt lat="43.51093" lon="6.89362">
        <ele>267</ele>
        <time>2024-10-10T09:39:26+02:00</time>
      </trkpt>
      <trkpt lat="43.51081" lon="6.89371">
        <ele>270</ele>
        <time>2024-10-10T09:40:06+02:00</time>
      </trkpt>
      <trkpt lat="43.51064" lon="6.89378">
        <ele>272</ele>
        <time>2024-10-10T09:40:31+02:00</time>
      </trkpt>
      <trkpt lat="43.51049" lon="6.89385">
        <ele>273</ele>
        <time>2024-10-10T09:40:46+02:00</time>
      </trkpt>
      <trkpt lat="43.51036" lon="6.89391">
        <ele>276</ele>
        <time>2024-10-10T09:41:06+02:00</time>
      </trkpt>
      <trkpt lat="43.51021" lon="6.894">
        <ele>278</ele>
        <time>2024-10-10T09:41:26+02:00</time>
      </trkpt>
      <trkpt lat="43.51008" lon="6.89408">
        <ele>279</ele>
        <time>2024-10-10T09:42:01+02:00</time>
      </trkpt>
      <trkpt lat="43.50994" lon="6.89416">
        <ele>280</ele>
        <time>2024-10-10T09:42:16+02:00</time>
      </trkpt>
      <trkpt lat="43.5098" lon="6.89427">
        <ele>281</ele>
        <time>2024-10-10T09:42:31+02:00</time>
      </trkpt>
      <trkpt lat="43.50966" lon="6.89435">
        <ele>282</ele>
        <time>2024-10-10T09:42:46+02:00</time>
      </trkpt>
      <trkpt lat="43.50952" lon="6.89439">
        <ele>283</ele>
        <time>2024-10-10T09:43:06+02:00</time>
      </trkpt>
      <trkpt lat="43.5095" lon="6.89438">
        <ele>284</ele>
        <time>2024-10-10T09:43:10+02:00</time>
      </trkpt>
      <trkpt lat="43.50962" lon="6.8943">
        <ele>285</ele>
        <time>2024-10-10T09:44:15+02:00</time>
      </trkpt>
      <trkpt lat="43.50976" lon="6.89417">
        <ele>287</ele>
        <time>2024-10-10T09:44:30+02:00</time>
      </trkpt>
      <trkpt lat="43.50988" lon="6.89401">
        <ele>289</ele>
        <time>2024-10-10T09:44:45+02:00</time>
      </trkpt>
      <trkpt lat="43.50993" lon="6.8938">
        <ele>291</ele>
        <time>2024-10-10T09:45:00+02:00</time>
      </trkpt>
      <trkpt lat="43.50989" lon="6.89361">
        <ele>293</ele>
        <time>2024-10-10T09:45:15+02:00</time>
      </trkpt>
      <trkpt lat="43.50975" lon="6.89344">
        <ele>296</ele>
        <time>2024-10-10T09:45:35+02:00</time>
      </trkpt>
      <trkpt lat="43.50964" lon="6.89332">
        <ele>298</ele>
        <time>2024-10-10T09:45:50+02:00</time>
      </trkpt>
      <trkpt lat="43.50948" lon="6.89324">
        <ele>301</ele>
        <time>2024-10-10T09:46:10+02:00</time>
      </trkpt>
      <trkpt lat="43.50934" lon="6.89321">
        <ele>303</ele>
        <time>2024-10-10T09:46:25+02:00</time>
      </trkpt>
      <trkpt lat="43.5092" lon="6.89323">
        <ele>304</ele>
        <time>2024-10-10T09:46:40+02:00</time>
      </trkpt>
      <trkpt lat="43.50904" lon="6.89327">
        <ele>306</ele>
        <time>2024-10-10T09:46:55+02:00</time>
      </trkpt>
      <trkpt lat="43.50887" lon="6.89333">
        <ele>307</ele>
        <time>2024-10-10T09:47:15+02:00</time>
      </trkpt>
      <trkpt lat="43.50872" lon="6.89323">
        <ele>308</ele>
        <time>2024-10-10T09:47:40+02:00</time>
      </trkpt>
      <trkpt lat="43.50861" lon="6.89312">
        <ele>310</ele>
        <time>2024-10-10T09:47:55+02:00</time>
      </trkpt>
      <trkpt lat="43.50849" lon="6.89293">
        <ele>310</ele>
        <time>2024-10-10T09:48:15+02:00</time>
      </trkpt>
      <trkpt lat="43.50836" lon="6.89281">
        <ele>311</ele>
        <time>2024-10-10T09:48:30+02:00</time>
      </trkpt>
      <trkpt lat="43.50822" lon="6.89277">
        <ele>311</ele>
        <time>2024-10-10T09:48:45+02:00</time>
      </trkpt>
      <trkpt lat="43.50807" lon="6.89279">
        <ele>312</ele>
        <time>2024-10-10T09:49:00+02:00</time>
      </trkpt>
      <trkpt lat="43.50796" lon="6.89294">
        <ele>312</ele>
        <time>2024-10-10T09:50:50+02:00</time>
      </trkpt>
      <trkpt lat="43.50798" lon="6.89274">
        <ele>312</ele>
        <time>2024-10-10T09:51:45+02:00</time>
      </trkpt>
      <trkpt lat="43.50786" lon="6.89261">
        <ele>311</ele>
        <time>2024-10-10T09:52:05+02:00</time>
      </trkpt>
      <trkpt lat="43.50778" lon="6.89241">
        <ele>312</ele>
        <time>2024-10-10T09:52:20+02:00</time>
      </trkpt>
      <trkpt lat="43.50769" lon="6.89226">
        <ele>312</ele>
        <time>2024-10-10T09:52:35+02:00</time>
      </trkpt>
      <trkpt lat="43.50759" lon="6.89205">
        <ele>312</ele>
        <time>2024-10-10T09:53:05+02:00</time>
      </trkpt>
      <trkpt lat="43.50747" lon="6.89191">
        <ele>312</ele>
        <time>2024-10-10T09:53:20+02:00</time>
      </trkpt>
      <trkpt lat="43.50729" lon="6.89182">
        <ele>312</ele>
        <time>2024-10-10T09:53:35+02:00</time>
      </trkpt>
      <trkpt lat="43.50713" lon="6.89175">
        <ele>313</ele>
        <time>2024-10-10T09:53:50+02:00</time>
      </trkpt>
      <trkpt lat="43.50694" lon="6.89169">
        <ele>313</ele>
        <time>2024-10-10T09:54:10+02:00</time>
      </trkpt>
      <trkpt lat="43.50682" lon="6.89158">
        <ele>313</ele>
        <time>2024-10-10T09:54:25+02:00</time>
      </trkpt>
      <trkpt lat="43.50671" lon="6.89142">
        <ele>313</ele>
        <time>2024-10-10T09:54:40+02:00</time>
      </trkpt>
      <trkpt lat="43.50657" lon="6.89127">
        <ele>313</ele>
        <time>2024-10-10T09:54:55+02:00</time>
      </trkpt>
      <trkpt lat="43.50643" lon="6.8911">
        <ele>313</ele>
        <time>2024-10-10T09:55:10+02:00</time>
      </trkpt>
      <trkpt lat="43.50629" lon="6.89097">
        <ele>312</ele>
        <time>2024-10-10T09:55:25+02:00</time>
      </trkpt>
      <trkpt lat="43.50617" lon="6.89084">
        <ele>311</ele>
        <time>2024-10-10T09:55:40+02:00</time>
      </trkpt>
      <trkpt lat="43.50603" lon="6.89079">
        <ele>311</ele>
        <time>2024-10-10T09:55:55+02:00</time>
      </trkpt>
      <trkpt lat="43.50589" lon="6.89069">
        <ele>310</ele>
        <time>2024-10-10T09:56:10+02:00</time>
      </trkpt>
      <trkpt lat="43.50581" lon="6.89053">
        <ele>309</ele>
        <time>2024-10-10T09:56:25+02:00</time>
      </trkpt>
      <trkpt lat="43.50571" lon="6.89035">
        <ele>308</ele>
        <time>2024-10-10T09:56:40+02:00</time>
      </trkpt>
      <trkpt lat="43.50557" lon="6.89024">
        <ele>308</ele>
        <time>2024-10-10T09:56:55+02:00</time>
      </trkpt>
      <trkpt lat="43.50545" lon="6.89009">
        <ele>308</ele>
        <time>2024-10-10T09:57:15+02:00</time>
      </trkpt>
      <trkpt lat="43.50537" lon="6.88991">
        <ele>307</ele>
        <time>2024-10-10T09:57:30+02:00</time>
      </trkpt>
      <trkpt lat="43.50532" lon="6.88971">
        <ele>307</ele>
        <time>2024-10-10T09:57:50+02:00</time>
      </trkpt>
      <trkpt lat="43.50518" lon="6.88956">
        <ele>306</ele>
        <time>2024-10-10T09:58:05+02:00</time>
      </trkpt>
      <trkpt lat="43.505" lon="6.88946">
        <ele>306</ele>
        <time>2024-10-10T09:58:20+02:00</time>
      </trkpt>
      <trkpt lat="43.50487" lon="6.88932">
        <ele>305</ele>
        <time>2024-10-10T09:58:35+02:00</time>
      </trkpt>
      <trkpt lat="43.50499" lon="6.88923">
        <ele>303</ele>
        <time>2024-10-10T09:58:55+02:00</time>
      </trkpt>
      <trkpt lat="43.5051" lon="6.88905">
        <ele>301</ele>
        <time>2024-10-10T09:59:20+02:00</time>
      </trkpt>
      <trkpt lat="43.50524" lon="6.88895">
        <ele>300</ele>
        <time>2024-10-10T09:59:35+02:00</time>
      </trkpt>
      <trkpt lat="43.50537" lon="6.88884">
        <ele>299</ele>
        <time>2024-10-10T09:59:50+02:00</time>
      </trkpt>
      <trkpt lat="43.50552" lon="6.88879">
        <ele>298</ele>
        <time>2024-10-10T10:00:05+02:00</time>
      </trkpt>
      <trkpt lat="43.50568" lon="6.88878">
        <ele>297</ele>
        <time>2024-10-10T10:00:55+02:00</time>
      </trkpt>
      <trkpt lat="43.50578" lon="6.88865">
        <ele>296</ele>
        <time>2024-10-10T10:01:10+02:00</time>
      </trkpt>
      <trkpt lat="43.5058" lon="6.88844">
        <ele>296</ele>
        <time>2024-10-10T10:01:30+02:00</time>
      </trkpt>
      <trkpt lat="43.5058" lon="6.88868">
        <ele>297</ele>
        <time>2024-10-10T10:05:25+02:00</time>
      </trkpt>
      <trkpt lat="43.50578" lon="6.8885">
        <ele>297</ele>
        <time>2024-10-10T10:06:25+02:00</time>
      </trkpt>
      <trkpt lat="43.50567" lon="6.88833">
        <ele>297</ele>
        <time>2024-10-10T10:08:25+02:00</time>
      </trkpt>
      <trkpt lat="43.50555" lon="6.88823">
        <ele>297</ele>
        <time>2024-10-10T10:08:45+02:00</time>
      </trkpt>
      <trkpt lat="43.50542" lon="6.88814">
        <ele>298</ele>
        <time>2024-10-10T10:09:00+02:00</time>
      </trkpt>
      <trkpt lat="43.50529" lon="6.88796">
        <ele>298</ele>
        <time>2024-10-10T10:09:20+02:00</time>
      </trkpt>
      <trkpt lat="43.50515" lon="6.88787">
        <ele>300</ele>
        <time>2024-10-10T10:09:50+02:00</time>
      </trkpt>
      <trkpt lat="43.50501" lon="6.88785">
        <ele>301</ele>
        <time>2024-10-10T10:10:05+02:00</time>
      </trkpt>
      <trkpt lat="43.50486" lon="6.88779">
        <ele>302</ele>
        <time>2024-10-10T10:10:20+02:00</time>
      </trkpt>
      <trkpt lat="43.50472" lon="6.88772">
        <ele>303</ele>
        <time>2024-10-10T10:10:40+02:00</time>
      </trkpt>
      <trkpt lat="43.50456" lon="6.88765">
        <ele>305</ele>
        <time>2024-10-10T10:10:55+02:00</time>
      </trkpt>
      <trkpt lat="43.50441" lon="6.8877">
        <ele>306</ele>
        <time>2024-10-10T10:11:10+02:00</time>
      </trkpt>
      <trkpt lat="43.50426" lon="6.88782">
        <ele>308</ele>
        <time>2024-10-10T10:11:30+02:00</time>
      </trkpt>
      <trkpt lat="43.50415" lon="6.88796">
        <ele>310</ele>
        <time>2024-10-10T10:11:45+02:00</time>
      </trkpt>
      <trkpt lat="43.50401" lon="6.88809">
        <ele>312</ele>
        <time>2024-10-10T10:12:15+02:00</time>
      </trkpt>
      <trkpt lat="43.50386" lon="6.88816">
        <ele>313</ele>
        <time>2024-10-10T10:12:30+02:00</time>
      </trkpt>
      <trkpt lat="43.50371" lon="6.88821">
        <ele>314</ele>
        <time>2024-10-10T10:12:45+02:00</time>
      </trkpt>
      <trkpt lat="43.50357" lon="6.8883">
        <ele>315</ele>
        <time>2024-10-10T10:13:00+02:00</time>
      </trkpt>
      <trkpt lat="43.50344" lon="6.88842">
        <ele>316</ele>
        <time>2024-10-10T10:13:15+02:00</time>
      </trkpt>
      <trkpt lat="43.5033" lon="6.88849">
        <ele>318</ele>
        <time>2024-10-10T10:13:30+02:00</time>
      </trkpt>
      <trkpt lat="43.50315" lon="6.88845">
        <ele>318</ele>
        <time>2024-10-10T10:13:55+02:00</time>
      </trkpt>
      <trkpt lat="43.50319" lon="6.88819">
        <ele>319</ele>
        <time>2024-10-10T10:14:15+02:00</time>
      </trkpt>
      <trkpt lat="43.5032" lon="6.88799">
        <ele>319</ele>
        <time>2024-10-10T10:14:30+02:00</time>
      </trkpt>
      <trkpt lat="43.50323" lon="6.88779">
        <ele>320</ele>
        <time>2024-10-10T10:15:00+02:00</time>
      </trkpt>
      <trkpt lat="43.50317" lon="6.88759">
        <ele>322</ele>
        <time>2024-10-10T10:15:15+02:00</time>
      </trkpt>
      <trkpt lat="43.50305" lon="6.88744">
        <ele>323</ele>
        <time>2024-10-10T10:15:45+02:00</time>
      </trkpt>
      <trkpt lat="43.50294" lon="6.88728">
        <ele>325</ele>
        <time>2024-10-10T10:16:00+02:00</time>
      </trkpt>
      <trkpt lat="43.50284" lon="6.88711">
        <ele>326</ele>
        <time>2024-10-10T10:16:15+02:00</time>
      </trkpt>
      <trkpt lat="43.50271" lon="6.88699">
        <ele>328</ele>
        <time>2024-10-10T10:16:30+02:00</time>
      </trkpt>
      <trkpt lat="43.50266" lon="6.88676">
        <ele>329</ele>
        <time>2024-10-10T10:16:50+02:00</time>
      </trkpt>
      <trkpt lat="43.5028" lon="6.88659">
        <ele>330</ele>
        <time>2024-10-10T10:17:10+02:00</time>
      </trkpt>
      <trkpt lat="43.50297" lon="6.88653">
        <ele>331</ele>
        <time>2024-10-10T10:17:25+02:00</time>
      </trkpt>
      <trkpt lat="43.5031" lon="6.88647">
        <ele>333</ele>
        <time>2024-10-10T10:17:40+02:00</time>
      </trkpt>
      <trkpt lat="43.50322" lon="6.88628">
        <ele>334</ele>
        <time>2024-10-10T10:17:55+02:00</time>
      </trkpt>
      <trkpt lat="43.50326" lon="6.88606">
        <ele>335</ele>
        <time>2024-10-10T10:18:10+02:00</time>
      </trkpt>
      <trkpt lat="43.50323" lon="6.88586">
        <ele>337</ele>
        <time>2024-10-10T10:18:25+02:00</time>
      </trkpt>
      <trkpt lat="43.50314" lon="6.88565">
        <ele>338</ele>
        <time>2024-10-10T10:19:40+02:00</time>
      </trkpt>
      <trkpt lat="43.50312" lon="6.88545">
        <ele>340</ele>
        <time>2024-10-10T10:20:15+02:00</time>
      </trkpt>
      <trkpt lat="43.50311" lon="6.88521">
        <ele>342</ele>
        <time>2024-10-10T10:20:35+02:00</time>
      </trkpt>
      <trkpt lat="43.50304" lon="6.88498">
        <ele>344</ele>
        <time>2024-10-10T10:20:50+02:00</time>
      </trkpt>
      <trkpt lat="43.50293" lon="6.88479">
        <ele>346</ele>
        <time>2024-10-10T10:21:05+02:00</time>
      </trkpt>
      <trkpt lat="43.50283" lon="6.88465">
        <ele>348</ele>
        <time>2024-10-10T10:21:20+02:00</time>
      </trkpt>
      <trkpt lat="43.50277" lon="6.88447">
        <ele>349</ele>
        <time>2024-10-10T10:21:45+02:00</time>
      </trkpt>
      <trkpt lat="43.50272" lon="6.88428">
        <ele>350</ele>
        <time>2024-10-10T10:22:00+02:00</time>
      </trkpt>
      <trkpt lat="43.50268" lon="6.88407">
        <ele>351</ele>
        <time>2024-10-10T10:22:25+02:00</time>
      </trkpt>
      <trkpt lat="43.50258" lon="6.88392">
        <ele>351</ele>
        <time>2024-10-10T10:22:45+02:00</time>
      </trkpt>
      <trkpt lat="43.50247" lon="6.8838">
        <ele>352</ele>
        <time>2024-10-10T10:24:05+02:00</time>
      </trkpt>
      <trkpt lat="43.50249" lon="6.88357">
        <ele>353</ele>
        <time>2024-10-10T10:24:30+02:00</time>
      </trkpt>
      <trkpt lat="43.50247" lon="6.88378">
        <ele>354</ele>
        <time>2024-10-10T10:25:25+02:00</time>
      </trkpt>
      <trkpt lat="43.50252" lon="6.88395">
        <ele>356</ele>
        <time>2024-10-10T10:28:40+02:00</time>
      </trkpt>
      <trkpt lat="43.50258" lon="6.88413">
        <ele>357</ele>
        <time>2024-10-10T10:28:55+02:00</time>
      </trkpt>
      <trkpt lat="43.50258" lon="6.88436">
        <ele>358</ele>
        <time>2024-10-10T10:29:15+02:00</time>
      </trkpt>
      <trkpt lat="43.50258" lon="6.88456">
        <ele>359</ele>
        <time>2024-10-10T10:29:35+02:00</time>
      </trkpt>
      <trkpt lat="43.50261" lon="6.88475">
        <ele>361</ele>
        <time>2024-10-10T10:29:50+02:00</time>
      </trkpt>
      <trkpt lat="43.50259" lon="6.88497">
        <ele>362</ele>
        <time>2024-10-10T10:30:10+02:00</time>
      </trkpt>
      <trkpt lat="43.50258" lon="6.88522">
        <ele>362</ele>
        <time>2024-10-10T10:30:25+02:00</time>
      </trkpt>
      <trkpt lat="43.50248" lon="6.88539">
        <ele>363</ele>
        <time>2024-10-10T10:30:45+02:00</time>
      </trkpt>
      <trkpt lat="43.50236" lon="6.88558">
        <ele>364</ele>
        <time>2024-10-10T10:31:00+02:00</time>
      </trkpt>
      <trkpt lat="43.50226" lon="6.88575">
        <ele>366</ele>
        <time>2024-10-10T10:31:15+02:00</time>
      </trkpt>
      <trkpt lat="43.50215" lon="6.8859">
        <ele>368</ele>
        <time>2024-10-10T10:31:30+02:00</time>
      </trkpt>
      <trkpt lat="43.50201" lon="6.88602">
        <ele>370</ele>
        <time>2024-10-10T10:31:45+02:00</time>
      </trkpt>
      <trkpt lat="43.50187" lon="6.88614">
        <ele>373</ele>
        <time>2024-10-10T10:32:00+02:00</time>
      </trkpt>
      <trkpt lat="43.5018" lon="6.88633">
        <ele>376</ele>
        <time>2024-10-10T10:32:20+02:00</time>
      </trkpt>
      <trkpt lat="43.50175" lon="6.88651">
        <ele>378</ele>
        <time>2024-10-10T10:32:35+02:00</time>
      </trkpt>
      <trkpt lat="43.50174" lon="6.88674">
        <ele>381</ele>
        <time>2024-10-10T10:32:55+02:00</time>
      </trkpt>
      <trkpt lat="43.50175" lon="6.88695">
        <ele>383</ele>
        <time>2024-10-10T10:33:15+02:00</time>
      </trkpt>
      <trkpt lat="43.50174" lon="6.88715">
        <ele>385</ele>
        <time>2024-10-10T10:33:30+02:00</time>
      </trkpt>
      <trkpt lat="43.50176" lon="6.88734">
        <ele>387</ele>
        <time>2024-10-10T10:33:40+02:00</time>
      </trkpt>
      <trkpt lat="43.5018" lon="6.88754">
        <ele>387</ele>
        <time>2024-10-10T10:33:55+02:00</time>
      </trkpt>
      <trkpt lat="43.50185" lon="6.88773">
        <ele>388</ele>
        <time>2024-10-10T10:34:10+02:00</time>
      </trkpt>
      <trkpt lat="43.5019" lon="6.88791">
        <ele>389</ele>
        <time>2024-10-10T10:34:25+02:00</time>
      </trkpt>
      <trkpt lat="43.50192" lon="6.8881">
        <ele>389</ele>
        <time>2024-10-10T10:34:40+02:00</time>
      </trkpt>
      <trkpt lat="43.50194" lon="6.8883">
        <ele>389</ele>
        <time>2024-10-10T10:34:55+02:00</time>
      </trkpt>
      <trkpt lat="43.50189" lon="6.88854">
        <ele>388</ele>
        <time>2024-10-10T10:35:15+02:00</time>
      </trkpt>
      <trkpt lat="43.50181" lon="6.88877">
        <ele>388</ele>
        <time>2024-10-10T10:35:30+02:00</time>
      </trkpt>
      <trkpt lat="43.50174" lon="6.88898">
        <ele>390</ele>
        <time>2024-10-10T10:35:50+02:00</time>
      </trkpt>
      <trkpt lat="43.50169" lon="6.88918">
        <ele>392</ele>
        <time>2024-10-10T10:37:50+02:00</time>
      </trkpt>
      <trkpt lat="43.50169" lon="6.8894">
        <ele>393</ele>
        <time>2024-10-10T10:39:45+02:00</time>
      </trkpt>
      <trkpt lat="43.50167" lon="6.88961">
        <ele>396</ele>
        <time>2024-10-10T10:40:00+02:00</time>
      </trkpt>
      <trkpt lat="43.50162" lon="6.8898">
        <ele>398</ele>
        <time>2024-10-10T10:40:15+02:00</time>
      </trkpt>
      <trkpt lat="43.50149" lon="6.89028">
        <ele>403</ele>
        <time>2024-10-10T10:40:50+02:00</time>
      </trkpt>
      <trkpt lat="43.50178" lon="6.89187">
        <ele>407</ele>
        <time>2024-10-10T10:44:21+02:00</time>
      </trkpt>
      <trkpt lat="43.50216" lon="6.89206">
        <ele>410</ele>
        <time>2024-10-10T10:44:27+02:00</time>
      </trkpt>
      <trkpt lat="43.50219" lon="6.89225">
        <ele>412</ele>
        <time>2024-10-10T10:44:37+02:00</time>
      </trkpt>
      <trkpt lat="43.50213" lon="6.89244">
        <ele>414</ele>
        <time>2024-10-10T10:45:02+02:00</time>
      </trkpt>
      <trkpt lat="43.50212" lon="6.89264">
        <ele>417</ele>
        <time>2024-10-10T10:45:22+02:00</time>
      </trkpt>
      <trkpt lat="43.50195" lon="6.89262">
        <ele>419</ele>
        <time>2024-10-10T10:46:42+02:00</time>
      </trkpt>
      <trkpt lat="43.50182" lon="6.89268">
        <ele>420</ele>
        <time>2024-10-10T10:47:02+02:00</time>
      </trkpt>
      <trkpt lat="43.50172" lon="6.89284">
        <ele>420</ele>
        <time>2024-10-10T10:47:52+02:00</time>
      </trkpt>
      <trkpt lat="43.50159" lon="6.8929">
        <ele>420</ele>
        <time>2024-10-10T10:48:52+02:00</time>
      </trkpt>
      <trkpt lat="43.50149" lon="6.89272">
        <ele>420</ele>
        <time>2024-10-10T10:49:37+02:00</time>
      </trkpt>
      <trkpt lat="43.50135" lon="6.89275">
        <ele>420</ele>
        <time>2024-10-10T10:49:57+02:00</time>
      </trkpt>
      <trkpt lat="43.50124" lon="6.8929">
        <ele>418</ele>
        <time>2024-10-10T10:50:12+02:00</time>
      </trkpt>
      <trkpt lat="43.50113" lon="6.89309">
        <ele>417</ele>
        <time>2024-10-10T10:50:27+02:00</time>
      </trkpt>
      <trkpt lat="43.50105" lon="6.89325">
        <ele>415</ele>
        <time>2024-10-10T10:50:42+02:00</time>
      </trkpt>
      <trkpt lat="43.50093" lon="6.89338">
        <ele>412</ele>
        <time>2024-10-10T10:51:02+02:00</time>
      </trkpt>
      <trkpt lat="43.50081" lon="6.89352">
        <ele>410</ele>
        <time>2024-10-10T10:51:22+02:00</time>
      </trkpt>
      <trkpt lat="43.50065" lon="6.8936">
        <ele>408</ele>
        <time>2024-10-10T10:51:47+02:00</time>
      </trkpt>
      <trkpt lat="43.50052" lon="6.8937">
        <ele>406</ele>
        <time>2024-10-10T10:52:07+02:00</time>
      </trkpt>
      <trkpt lat="43.50039" lon="6.89383">
        <ele>405</ele>
        <time>2024-10-10T10:52:27+02:00</time>
      </trkpt>
      <trkpt lat="43.50025" lon="6.89396">
        <ele>404</ele>
        <time>2024-10-10T10:52:42+02:00</time>
      </trkpt>
      <trkpt lat="43.50015" lon="6.89413">
        <ele>403</ele>
        <time>2024-10-10T10:52:57+02:00</time>
      </trkpt>
      <trkpt lat="43.50004" lon="6.89425">
        <ele>402</ele>
        <time>2024-10-10T10:53:27+02:00</time>
      </trkpt>
      <trkpt lat="43.49995" lon="6.89445">
        <ele>401</ele>
        <time>2024-10-10T10:53:47+02:00</time>
      </trkpt>
      <trkpt lat="43.49986" lon="6.89466">
        <ele>400</ele>
        <time>2024-10-10T10:54:52+02:00</time>
      </trkpt>
      <trkpt lat="43.49977" lon="6.89487">
        <ele>399</ele>
        <time>2024-10-10T10:55:07+02:00</time>
      </trkpt>
      <trkpt lat="43.49971" lon="6.89507">
        <ele>398</ele>
        <time>2024-10-10T10:55:22+02:00</time>
      </trkpt>
      <trkpt lat="43.49967" lon="6.89527">
        <ele>397</ele>
        <time>2024-10-10T10:55:37+02:00</time>
      </trkpt>
      <trkpt lat="43.49965" lon="6.8955">
        <ele>395</ele>
        <time>2024-10-10T10:55:52+02:00</time>
      </trkpt>
      <trkpt lat="43.49965" lon="6.89573">
        <ele>393</ele>
        <time>2024-10-10T10:56:07+02:00</time>
      </trkpt>
      <trkpt lat="43.49964" lon="6.89596">
        <ele>391</ele>
        <time>2024-10-10T10:56:22+02:00</time>
      </trkpt>
      <trkpt lat="43.49966" lon="6.89621">
        <ele>388</ele>
        <time>2024-10-10T10:56:37+02:00</time>
      </trkpt>
      <trkpt lat="43.49968" lon="6.89642">
        <ele>386</ele>
        <time>2024-10-10T10:56:52+02:00</time>
      </trkpt>
      <trkpt lat="43.4997" lon="6.8966">
        <ele>384</ele>
        <time>2024-10-10T10:57:02+02:00</time>
      </trkpt>
      <trkpt lat="43.49974" lon="6.8968">
        <ele>382</ele>
        <time>2024-10-10T10:57:17+02:00</time>
      </trkpt>
      <trkpt lat="43.49974" lon="6.89702">
        <ele>380</ele>
        <time>2024-10-10T10:57:32+02:00</time>
      </trkpt>
      <trkpt lat="43.49971" lon="6.89721">
        <ele>378</ele>
        <time>2024-10-10T10:57:47+02:00</time>
      </trkpt>
      <trkpt lat="43.49964" lon="6.89739">
        <ele>376</ele>
        <time>2024-10-10T10:58:02+02:00</time>
      </trkpt>
      <trkpt lat="43.49958" lon="6.89759">
        <ele>374</ele>
        <time>2024-10-10T10:58:17+02:00</time>
      </trkpt>
      <trkpt lat="43.49956" lon="6.89782">
        <ele>372</ele>
        <time>2024-10-10T10:58:32+02:00</time>
      </trkpt>
      <trkpt lat="43.49955" lon="6.89802">
        <ele>371</ele>
        <time>2024-10-10T10:58:47+02:00</time>
      </trkpt>
      <trkpt lat="43.49945" lon="6.89817">
        <ele>369</ele>
        <time>2024-10-10T10:59:02+02:00</time>
      </trkpt>
      <trkpt lat="43.49932" lon="6.89811">
        <ele>368</ele>
        <time>2024-10-10T10:59:17+02:00</time>
      </trkpt>
      <trkpt lat="43.49919" lon="6.89801">
        <ele>366</ele>
        <time>2024-10-10T10:59:32+02:00</time>
      </trkpt>
      <trkpt lat="43.49906" lon="6.8979">
        <ele>365</ele>
        <time>2024-10-10T10:59:47+02:00</time>
      </trkpt>
      <trkpt lat="43.49894" lon="6.89779">
        <ele>364</ele>
        <time>2024-10-10T11:00:02+02:00</time>
      </trkpt>
      <trkpt lat="43.49881" lon="6.89771">
        <ele>363</ele>
        <time>2024-10-10T11:00:17+02:00</time>
      </trkpt>
      <trkpt lat="43.49866" lon="6.89766">
        <ele>362</ele>
        <time>2024-10-10T11:00:32+02:00</time>
      </trkpt>
      <trkpt lat="43.49848" lon="6.89767">
        <ele>360</ele>
        <time>2024-10-10T11:00:47+02:00</time>
      </trkpt>
      <trkpt lat="43.49833" lon="6.8978">
        <ele>359</ele>
        <time>2024-10-10T11:01:02+02:00</time>
      </trkpt>
      <trkpt lat="43.49821" lon="6.89792">
        <ele>357</ele>
        <time>2024-10-10T11:01:17+02:00</time>
      </trkpt>
      <trkpt lat="43.49806" lon="6.89799">
        <ele>355</ele>
        <time>2024-10-10T11:01:32+02:00</time>
      </trkpt>
      <trkpt lat="43.49792" lon="6.89809">
        <ele>353</ele>
        <time>2024-10-10T11:01:47+02:00</time>
      </trkpt>
      <trkpt lat="43.49775" lon="6.89818">
        <ele>351</ele>
        <time>2024-10-10T11:02:02+02:00</time>
      </trkpt>
      <trkpt lat="43.4976" lon="6.89829">
        <ele>349</ele>
        <time>2024-10-10T11:02:17+02:00</time>
      </trkpt>
      <trkpt lat="43.49746" lon="6.89844">
        <ele>348</ele>
        <time>2024-10-10T11:02:32+02:00</time>
      </trkpt>
      <trkpt lat="43.49734" lon="6.89859">
        <ele>347</ele>
        <time>2024-10-10T11:02:47+02:00</time>
      </trkpt>
      <trkpt lat="43.49725" lon="6.89881">
        <ele>346</ele>
        <time>2024-10-10T11:03:02+02:00</time>
      </trkpt>
      <trkpt lat="43.49715" lon="6.89898">
        <ele>346</ele>
        <time>2024-10-10T11:03:17+02:00</time>
      </trkpt>
      <trkpt lat="43.49703" lon="6.89914">
        <ele>346</ele>
        <time>2024-10-10T11:03:32+02:00</time>
      </trkpt>
      <trkpt lat="43.49689" lon="6.89925">
        <ele>346</ele>
        <time>2024-10-10T11:03:47+02:00</time>
      </trkpt>
      <trkpt lat="43.49677" lon="6.89936">
        <ele>347</ele>
        <time>2024-10-10T11:04:02+02:00</time>
      </trkpt>
      <trkpt lat="43.49666" lon="6.89949">
        <ele>348</ele>
        <time>2024-10-10T11:04:32+02:00</time>
      </trkpt>
      <trkpt lat="43.49655" lon="6.89937">
        <ele>349</ele>
        <time>2024-10-10T11:06:07+02:00</time>
      </trkpt>
      <trkpt lat="43.4964" lon="6.89938">
        <ele>350</ele>
        <time>2024-10-10T11:06:27+02:00</time>
      </trkpt>
      <trkpt lat="43.49625" lon="6.89942">
        <ele>351</ele>
        <time>2024-10-10T11:06:47+02:00</time>
      </trkpt>
      <trkpt lat="43.49611" lon="6.89943">
        <ele>351</ele>
        <time>2024-10-10T11:07:02+02:00</time>
      </trkpt>
      <trkpt lat="43.49597" lon="6.89942">
        <ele>353</ele>
        <time>2024-10-10T11:07:17+02:00</time>
      </trkpt>
      <trkpt lat="43.49579" lon="6.89944">
        <ele>354</ele>
        <time>2024-10-10T11:07:37+02:00</time>
      </trkpt>
      <trkpt lat="43.49565" lon="6.89948">
        <ele>355</ele>
        <time>2024-10-10T11:07:52+02:00</time>
      </trkpt>
      <trkpt lat="43.49553" lon="6.89958">
        <ele>355</ele>
        <time>2024-10-10T11:08:07+02:00</time>
      </trkpt>
      <trkpt lat="43.49549" lon="6.89978">
        <ele>354</ele>
        <time>2024-10-10T11:08:22+02:00</time>
      </trkpt>
      <trkpt lat="43.49544" lon="6.89999">
        <ele>353</ele>
        <time>2024-10-10T11:08:37+02:00</time>
      </trkpt>
      <trkpt lat="43.49542" lon="6.90021">
        <ele>352</ele>
        <time>2024-10-10T11:08:52+02:00</time>
      </trkpt>
      <trkpt lat="43.49541" lon="6.90043">
        <ele>350</ele>
        <time>2024-10-10T11:09:07+02:00</time>
      </trkpt>
      <trkpt lat="43.49544" lon="6.90061">
        <ele>348</ele>
        <time>2024-10-10T11:09:22+02:00</time>
      </trkpt>
      <trkpt lat="43.49544" lon="6.90083">
        <ele>345</ele>
        <time>2024-10-10T11:09:42+02:00</time>
      </trkpt>
      <trkpt lat="43.49546" lon="6.90102">
        <ele>342</ele>
        <time>2024-10-10T11:09:57+02:00</time>
      </trkpt>
      <trkpt lat="43.4955" lon="6.90122">
        <ele>339</ele>
        <time>2024-10-10T11:10:17+02:00</time>
      </trkpt>
      <trkpt lat="43.49552" lon="6.90141">
        <ele>336</ele>
        <time>2024-10-10T11:10:32+02:00</time>
      </trkpt>
      <trkpt lat="43.49561" lon="6.90158">
        <ele>332</ele>
        <time>2024-10-10T11:10:57+02:00</time>
      </trkpt>
      <trkpt lat="43.49569" lon="6.90173">
        <ele>328</ele>
        <time>2024-10-10T11:11:22+02:00</time>
      </trkpt>
      <trkpt lat="43.49578" lon="6.90189">
        <ele>324</ele>
        <time>2024-10-10T11:11:47+02:00</time>
      </trkpt>
      <trkpt lat="43.49589" lon="6.90205">
        <ele>320</ele>
        <time>2024-10-10T11:12:12+02:00</time>
      </trkpt>
      <trkpt lat="43.49583" lon="6.90222">
        <ele>315</ele>
        <time>2024-10-10T11:12:47+02:00</time>
      </trkpt>
      <trkpt lat="43.4957" lon="6.90236">
        <ele>311</ele>
        <time>2024-10-10T11:13:22+02:00</time>
      </trkpt>
      <trkpt lat="43.49557" lon="6.90247">
        <ele>307</ele>
        <time>2024-10-10T11:13:57+02:00</time>
      </trkpt>
      <trkpt lat="43.49548" lon="6.90262">
        <ele>303</ele>
        <time>2024-10-10T11:14:22+02:00</time>
      </trkpt>
      <trkpt lat="43.49537" lon="6.90276">
        <ele>300</ele>
        <time>2024-10-10T11:14:52+02:00</time>
      </trkpt>
      <trkpt lat="43.49529" lon="6.90291">
        <ele>298</ele>
        <time>2024-10-10T11:15:12+02:00</time>
      </trkpt>
      <trkpt lat="43.49524" lon="6.90313">
        <ele>296</ele>
        <time>2024-10-10T11:15:32+02:00</time>
      </trkpt>
      <trkpt lat="43.49521" lon="6.90333">
        <ele>295</ele>
        <time>2024-10-10T11:16:22+02:00</time>
      </trkpt>
      <trkpt lat="43.49512" lon="6.90349">
        <ele>295</ele>
        <time>2024-10-10T11:19:27+02:00</time>
      </trkpt>
      <trkpt lat="43.49501" lon="6.90364">
        <ele>294</ele>
        <time>2024-10-10T11:19:47+02:00</time>
      </trkpt>
      <trkpt lat="43.49497" lon="6.90387">
        <ele>294</ele>
        <time>2024-10-10T11:20:07+02:00</time>
      </trkpt>
      <trkpt lat="43.49501" lon="6.90406">
        <ele>295</ele>
        <time>2024-10-10T11:23:42+02:00</time>
      </trkpt>
      <trkpt lat="43.49503" lon="6.90424">
        <ele>295</ele>
        <time>2024-10-10T11:24:07+02:00</time>
      </trkpt>
      <trkpt lat="43.49507" lon="6.90447">
        <ele>295</ele>
        <time>2024-10-10T11:24:22+02:00</time>
      </trkpt>
      <trkpt lat="43.49508" lon="6.90468">
        <ele>295</ele>
        <time>2024-10-10T11:24:37+02:00</time>
      </trkpt>
      <trkpt lat="43.49506" lon="6.90492">
        <ele>295</ele>
        <time>2024-10-10T11:24:52+02:00</time>
      </trkpt>
      <trkpt lat="43.49504" lon="6.90514">
        <ele>295</ele>
        <time>2024-10-10T11:25:07+02:00</time>
      </trkpt>
      <trkpt lat="43.495" lon="6.90535">
        <ele>295</ele>
        <time>2024-10-10T11:25:22+02:00</time>
      </trkpt>
      <trkpt lat="43.49502" lon="6.9056">
        <ele>295</ele>
        <time>2024-10-10T11:25:37+02:00</time>
      </trkpt>
      <trkpt lat="43.49509" lon="6.90584">
        <ele>295</ele>
        <time>2024-10-10T11:25:52+02:00</time>
      </trkpt>
      <trkpt lat="43.49522" lon="6.90603">
        <ele>295</ele>
        <time>2024-10-10T11:26:07+02:00</time>
      </trkpt>
      <trkpt lat="43.4953" lon="6.90618">
        <ele>294</ele>
        <time>2024-10-10T11:26:22+02:00</time>
      </trkpt>
      <trkpt lat="43.49541" lon="6.90628">
        <ele>294</ele>
        <time>2024-10-10T11:26:32+02:00</time>
      </trkpt>
      <trkpt lat="43.49557" lon="6.90635">
        <ele>293</ele>
        <time>2024-10-10T11:26:47+02:00</time>
      </trkpt>
      <trkpt lat="43.4957" lon="6.90653">
        <ele>293</ele>
        <time>2024-10-10T11:27:02+02:00</time>
      </trkpt>
      <trkpt lat="43.4958" lon="6.90671">
        <ele>293</ele>
        <time>2024-10-10T11:27:17+02:00</time>
      </trkpt>
      <trkpt lat="43.49592" lon="6.90689">
        <ele>293</ele>
        <time>2024-10-10T11:27:32+02:00</time>
      </trkpt>
      <trkpt lat="43.49607" lon="6.90703">
        <ele>293</ele>
        <time>2024-10-10T11:27:47+02:00</time>
      </trkpt>
      <trkpt lat="43.49622" lon="6.90718">
        <ele>294</ele>
        <time>2024-10-10T11:28:02+02:00</time>
      </trkpt>
      <trkpt lat="43.49638" lon="6.90734">
        <ele>294</ele>
        <time>2024-10-10T11:28:17+02:00</time>
      </trkpt>
      <trkpt lat="43.49651" lon="6.9075">
        <ele>295</ele>
        <time>2024-10-10T11:28:32+02:00</time>
      </trkpt>
      <trkpt lat="43.49662" lon="6.90768">
        <ele>296</ele>
        <time>2024-10-10T11:28:47+02:00</time>
      </trkpt>
      <trkpt lat="43.4967" lon="6.90786">
        <ele>296</ele>
        <time>2024-10-10T11:29:02+02:00</time>
      </trkpt>
      <trkpt lat="43.49677" lon="6.90807">
        <ele>296</ele>
        <time>2024-10-10T11:29:17+02:00</time>
      </trkpt>
      <trkpt lat="43.49686" lon="6.90829">
        <ele>297</ele>
        <time>2024-10-10T11:29:32+02:00</time>
      </trkpt>
      <trkpt lat="43.49693" lon="6.90854">
        <ele>297</ele>
        <time>2024-10-10T11:29:47+02:00</time>
      </trkpt>
      <trkpt lat="43.49701" lon="6.90875">
        <ele>298</ele>
        <time>2024-10-10T11:30:02+02:00</time>
      </trkpt>
      <trkpt lat="43.49705" lon="6.90896">
        <ele>298</ele>
        <time>2024-10-10T11:30:17+02:00</time>
      </trkpt>
      <trkpt lat="43.49707" lon="6.9092">
        <ele>299</ele>
        <time>2024-10-10T11:30:32+02:00</time>
      </trkpt>
      <trkpt lat="43.49711" lon="6.90945">
        <ele>299</ele>
        <time>2024-10-10T11:30:47+02:00</time>
      </trkpt>
      <trkpt lat="43.49705" lon="6.90968">
        <ele>299</ele>
        <time>2024-10-10T11:31:02+02:00</time>
      </trkpt>
      <trkpt lat="43.49692" lon="6.9098">
        <ele>299</ele>
        <time>2024-10-10T11:31:17+02:00</time>
      </trkpt>
      <trkpt lat="43.4968" lon="6.90997">
        <ele>298</ele>
        <time>2024-10-10T11:31:32+02:00</time>
      </trkpt>
      <trkpt lat="43.49679" lon="6.91016">
        <ele>298</ele>
        <time>2024-10-10T11:31:42+02:00</time>
      </trkpt>
      <trkpt lat="43.49684" lon="6.91034">
        <ele>297</ele>
        <time>2024-10-10T11:31:52+02:00</time>
      </trkpt>
      <trkpt lat="43.49694" lon="6.91057">
        <ele>296</ele>
        <time>2024-10-10T11:32:07+02:00</time>
      </trkpt>
      <trkpt lat="43.49697" lon="6.91081">
        <ele>296</ele>
        <time>2024-10-10T11:32:22+02:00</time>
      </trkpt>
      <trkpt lat="43.497" lon="6.91104">
        <ele>296</ele>
        <time>2024-10-10T11:32:37+02:00</time>
      </trkpt>
      <trkpt lat="43.49704" lon="6.91125">
        <ele>294</ele>
        <time>2024-10-10T11:32:52+02:00</time>
      </trkpt>
      <trkpt lat="43.49709" lon="6.91144">
        <ele>293</ele>
        <time>2024-10-10T11:33:52+02:00</time>
      </trkpt>
      <trkpt lat="43.49715" lon="6.91167">
        <ele>293</ele>
        <time>2024-10-10T11:34:07+02:00</time>
      </trkpt>
      <trkpt lat="43.4972" lon="6.91187">
        <ele>292</ele>
        <time>2024-10-10T11:34:22+02:00</time>
      </trkpt>
      <trkpt lat="43.49722" lon="6.91212">
        <ele>293</ele>
        <time>2024-10-10T11:34:37+02:00</time>
      </trkpt>
      <trkpt lat="43.4973" lon="6.91235">
        <ele>293</ele>
        <time>2024-10-10T11:34:52+02:00</time>
      </trkpt>
      <trkpt lat="43.49742" lon="6.91259">
        <ele>293</ele>
        <time>2024-10-10T11:35:12+02:00</time>
      </trkpt>
      <trkpt lat="43.49752" lon="6.91274">
        <ele>294</ele>
        <time>2024-10-10T11:35:22+02:00</time>
      </trkpt>
      <trkpt lat="43.49764" lon="6.9129">
        <ele>294</ele>
        <time>2024-10-10T11:35:37+02:00</time>
      </trkpt>
      <trkpt lat="43.49777" lon="6.91299">
        <ele>294</ele>
        <time>2024-10-10T11:35:52+02:00</time>
      </trkpt>
      <trkpt lat="43.49792" lon="6.91307">
        <ele>295</ele>
        <time>2024-10-10T11:36:22+02:00</time>
      </trkpt>
      <trkpt lat="43.49805" lon="6.9132">
        <ele>295</ele>
        <time>2024-10-10T11:36:52+02:00</time>
      </trkpt>
      <trkpt lat="43.49813" lon="6.91339">
        <ele>295</ele>
        <time>2024-10-10T11:37:07+02:00</time>
      </trkpt>
      <trkpt lat="43.49819" lon="6.91356">
        <ele>295</ele>
        <time>2024-10-10T11:37:17+02:00</time>
      </trkpt>
      <trkpt lat="43.49829" lon="6.91376">
        <ele>295</ele>
        <time>2024-10-10T11:37:32+02:00</time>
      </trkpt>
      <trkpt lat="43.49841" lon="6.91393">
        <ele>296</ele>
        <time>2024-10-10T11:37:47+02:00</time>
      </trkpt>
      <trkpt lat="43.49854" lon="6.91411">
        <ele>297</ele>
        <time>2024-10-10T11:38:02+02:00</time>
      </trkpt>
      <trkpt lat="43.49868" lon="6.91425">
        <ele>298</ele>
        <time>2024-10-10T11:38:17+02:00</time>
      </trkpt>
      <trkpt lat="43.49882" lon="6.91441">
        <ele>299</ele>
        <time>2024-10-10T11:38:32+02:00</time>
      </trkpt>
      <trkpt lat="43.49897" lon="6.91457">
        <ele>300</ele>
        <time>2024-10-10T11:38:47+02:00</time>
      </trkpt>
      <trkpt lat="43.49907" lon="6.91479">
        <ele>301</ele>
        <time>2024-10-10T11:39:02+02:00</time>
      </trkpt>
      <trkpt lat="43.49905" lon="6.91501">
        <ele>301</ele>
        <time>2024-10-10T11:39:17+02:00</time>
      </trkpt>
      <trkpt lat="43.49902" lon="6.9152">
        <ele>302</ele>
        <time>2024-10-10T11:39:27+02:00</time>
      </trkpt>
      <trkpt lat="43.49896" lon="6.91543">
        <ele>302</ele>
        <time>2024-10-10T11:39:42+02:00</time>
      </trkpt>
      <trkpt lat="43.49887" lon="6.91563">
        <ele>303</ele>
        <time>2024-10-10T11:39:57+02:00</time>
      </trkpt>
      <trkpt lat="43.49876" lon="6.91579">
        <ele>303</ele>
        <time>2024-10-10T11:40:12+02:00</time>
      </trkpt>
      <trkpt lat="43.49861" lon="6.91589">
        <ele>302</ele>
        <time>2024-10-10T11:40:27+02:00</time>
      </trkpt>
      <trkpt lat="43.49844" lon="6.9159">
        <ele>301</ele>
        <time>2024-10-10T11:40:42+02:00</time>
      </trkpt>
      <trkpt lat="43.49826" lon="6.91581">
        <ele>301</ele>
        <time>2024-10-10T11:40:57+02:00</time>
      </trkpt>
      <trkpt lat="43.49808" lon="6.9157">
        <ele>301</ele>
        <time>2024-10-10T11:41:17+02:00</time>
      </trkpt>
      <trkpt lat="43.49793" lon="6.9156">
        <ele>301</ele>
        <time>2024-10-10T11:41:32+02:00</time>
      </trkpt>
      <trkpt lat="43.49777" lon="6.91549">
        <ele>301</ele>
        <time>2024-10-10T11:41:47+02:00</time>
      </trkpt>
      <trkpt lat="43.49763" lon="6.91539">
        <ele>302</ele>
        <time>2024-10-10T11:42:02+02:00</time>
      </trkpt>
      <trkpt lat="43.49747" lon="6.91537">
        <ele>301</ele>
        <time>2024-10-10T11:42:17+02:00</time>
      </trkpt>
      <trkpt lat="43.4973" lon="6.91536">
        <ele>302</ele>
        <time>2024-10-10T11:42:32+02:00</time>
      </trkpt>
      <trkpt lat="43.49743" lon="6.91534">
        <ele>303</ele>
        <time>2024-10-10T11:43:12+02:00</time>
      </trkpt>
      <trkpt lat="43.49758" lon="6.91534">
        <ele>303</ele>
        <time>2024-10-10T11:43:32+02:00</time>
      </trkpt>
      <trkpt lat="43.49742" lon="6.91524">
        <ele>303</ele>
        <time>2024-10-10T11:44:17+02:00</time>
      </trkpt>
      <trkpt lat="43.49728" lon="6.91529">
        <ele>303</ele>
        <time>2024-10-10T11:44:32+02:00</time>
      </trkpt>
      <trkpt lat="43.49715" lon="6.91539">
        <ele>304</ele>
        <time>2024-10-10T11:44:42+02:00</time>
      </trkpt>
      <trkpt lat="43.49705" lon="6.91551">
        <ele>304</ele>
        <time>2024-10-10T11:44:52+02:00</time>
      </trkpt>
      <trkpt lat="43.49696" lon="6.91571">
        <ele>305</ele>
        <time>2024-10-10T11:45:12+02:00</time>
      </trkpt>
      <trkpt lat="43.49684" lon="6.91588">
        <ele>305</ele>
        <time>2024-10-10T11:45:42+02:00</time>
      </trkpt>
      <trkpt lat="43.49672" lon="6.91609">
        <ele>305</ele>
        <time>2024-10-10T11:45:57+02:00</time>
      </trkpt>
      <trkpt lat="43.49661" lon="6.91626">
        <ele>305</ele>
        <time>2024-10-10T11:46:12+02:00</time>
      </trkpt>
      <trkpt lat="43.49663" lon="6.91651">
        <ele>305</ele>
        <time>2024-10-10T11:46:27+02:00</time>
      </trkpt>
      <trkpt lat="43.49655" lon="6.91671">
        <ele>305</ele>
        <time>2024-10-10T11:46:42+02:00</time>
      </trkpt>
      <trkpt lat="43.49646" lon="6.91694">
        <ele>303</ele>
        <time>2024-10-10T11:46:57+02:00</time>
      </trkpt>
      <trkpt lat="43.49643" lon="6.91718">
        <ele>301</ele>
        <time>2024-10-10T11:47:12+02:00</time>
      </trkpt>
      <trkpt lat="43.49643" lon="6.91741">
        <ele>299</ele>
        <time>2024-10-10T11:47:27+02:00</time>
      </trkpt>
      <trkpt lat="43.49646" lon="6.91762">
        <ele>296</ele>
        <time>2024-10-10T11:47:47+02:00</time>
      </trkpt>
      <trkpt lat="43.49648" lon="6.91786">
        <ele>295</ele>
        <time>2024-10-10T11:48:07+02:00</time>
      </trkpt>
      <trkpt lat="43.49658" lon="6.91799">
        <ele>291</ele>
        <time>2024-10-10T11:48:27+02:00</time>
      </trkpt>
      <trkpt lat="43.49647" lon="6.91815">
        <ele>289</ele>
        <time>2024-10-10T12:24:47+02:00</time>
      </trkpt>
      <trkpt lat="43.49665" lon="6.91794">
        <ele>288</ele>
        <time>2024-10-10T12:24:52+02:00</time>
      </trkpt>
      <trkpt lat="43.49659" lon="6.91811">
        <ele>287</ele>
        <time>2024-10-10T12:57:40+02:00</time>
      </trkpt>
      <trkpt lat="43.49668" lon="6.91834">
        <ele>285</ele>
        <time>2024-10-10T12:59:10+02:00</time>
      </trkpt>
      <trkpt lat="43.49677" lon="6.91855">
        <ele>285</ele>
        <time>2024-10-10T13:00:20+02:00</time>
      </trkpt>
      <trkpt lat="43.49681" lon="6.91877">
        <ele>285</ele>
        <time>2024-10-10T13:00:35+02:00</time>
      </trkpt>
      <trkpt lat="43.49688" lon="6.91896">
        <ele>284</ele>
        <time>2024-10-10T13:00:50+02:00</time>
      </trkpt>
      <trkpt lat="43.49697" lon="6.91913">
        <ele>284</ele>
        <time>2024-10-10T13:01:05+02:00</time>
      </trkpt>
      <trkpt lat="43.49707" lon="6.91931">
        <ele>284</ele>
        <time>2024-10-10T13:01:20+02:00</time>
      </trkpt>
      <trkpt lat="43.49714" lon="6.91949">
        <ele>283</ele>
        <time>2024-10-10T13:01:35+02:00</time>
      </trkpt>
      <trkpt lat="43.49723" lon="6.91964">
        <ele>283</ele>
        <time>2024-10-10T13:01:50+02:00</time>
      </trkpt>
      <trkpt lat="43.4973" lon="6.91983">
        <ele>283</ele>
        <time>2024-10-10T13:02:05+02:00</time>
      </trkpt>
      <trkpt lat="43.49739" lon="6.92002">
        <ele>282</ele>
        <time>2024-10-10T13:02:20+02:00</time>
      </trkpt>
      <trkpt lat="43.49746" lon="6.9202">
        <ele>282</ele>
        <time>2024-10-10T13:02:35+02:00</time>
      </trkpt>
      <trkpt lat="43.49752" lon="6.9204">
        <ele>282</ele>
        <time>2024-10-10T13:02:50+02:00</time>
      </trkpt>
      <trkpt lat="43.49758" lon="6.92061">
        <ele>282</ele>
        <time>2024-10-10T13:03:05+02:00</time>
      </trkpt>
      <trkpt lat="43.49764" lon="6.9208">
        <ele>282</ele>
        <time>2024-10-10T13:03:20+02:00</time>
      </trkpt>
      <trkpt lat="43.49773" lon="6.92098">
        <ele>281</ele>
        <time>2024-10-10T13:03:35+02:00</time>
      </trkpt>
      <trkpt lat="43.49776" lon="6.92116">
        <ele>281</ele>
        <time>2024-10-10T13:03:50+02:00</time>
      </trkpt>
      <trkpt lat="43.49781" lon="6.92136">
        <ele>281</ele>
        <time>2024-10-10T13:04:05+02:00</time>
      </trkpt>
      <trkpt lat="43.49789" lon="6.92156">
        <ele>281</ele>
        <time>2024-10-10T13:04:20+02:00</time>
      </trkpt>
      <trkpt lat="43.49799" lon="6.92171">
        <ele>280</ele>
        <time>2024-10-10T13:04:35+02:00</time>
      </trkpt>
      <trkpt lat="43.49807" lon="6.92188">
        <ele>279</ele>
        <time>2024-10-10T13:04:50+02:00</time>
      </trkpt>
      <trkpt lat="43.49816" lon="6.92203">
        <ele>277</ele>
        <time>2024-10-10T13:05:05+02:00</time>
      </trkpt>
      <trkpt lat="43.49817" lon="6.92224">
        <ele>276</ele>
        <time>2024-10-10T13:05:30+02:00</time>
      </trkpt>
      <trkpt lat="43.49825" lon="6.92206">
        <ele>274</ele>
        <time>2024-10-10T13:06:15+02:00</time>
      </trkpt>
      <trkpt lat="43.49834" lon="6.92193">
        <ele>271</ele>
        <time>2024-10-10T13:08:10+02:00</time>
      </trkpt>
      <trkpt lat="43.49845" lon="6.9218">
        <ele>269</ele>
        <time>2024-10-10T13:08:35+02:00</time>
      </trkpt>
      <trkpt lat="43.49858" lon="6.92165">
        <ele>267</ele>
        <time>2024-10-10T13:09:00+02:00</time>
      </trkpt>
      <trkpt lat="43.49869" lon="6.9215">
        <ele>265</ele>
        <time>2024-10-10T13:09:30+02:00</time>
      </trkpt>
      <trkpt lat="43.49879" lon="6.92133">
        <ele>263</ele>
        <time>2024-10-10T13:10:25+02:00</time>
      </trkpt>
      <trkpt lat="43.4989" lon="6.92118">
        <ele>262</ele>
        <time>2024-10-10T13:10:45+02:00</time>
      </trkpt>
      <trkpt lat="43.49897" lon="6.92101">
        <ele>260</ele>
        <time>2024-10-10T13:11:00+02:00</time>
      </trkpt>
      <trkpt lat="43.49904" lon="6.92081">
        <ele>259</ele>
        <time>2024-10-10T13:11:20+02:00</time>
      </trkpt>
      <trkpt lat="43.49913" lon="6.92062">
        <ele>258</ele>
        <time>2024-10-10T13:13:05+02:00</time>
      </trkpt>
      <trkpt lat="43.49923" lon="6.92049">
        <ele>257</ele>
        <time>2024-10-10T13:13:20+02:00</time>
      </trkpt>
      <trkpt lat="43.49932" lon="6.92031">
        <ele>255</ele>
        <time>2024-10-10T13:14:35+02:00</time>
      </trkpt>
      <trkpt lat="43.49947" lon="6.92017">
        <ele>253</ele>
        <time>2024-10-10T13:14:55+02:00</time>
      </trkpt>
      <trkpt lat="43.4996" lon="6.92012">
        <ele>251</ele>
        <time>2024-10-10T13:15:10+02:00</time>
      </trkpt>
      <trkpt lat="43.49973" lon="6.92006">
        <ele>248</ele>
        <time>2024-10-10T13:15:25+02:00</time>
      </trkpt>
      <trkpt lat="43.49986" lon="6.91998">
        <ele>245</ele>
        <time>2024-10-10T13:15:40+02:00</time>
      </trkpt>
      <trkpt lat="43.49999" lon="6.91993">
        <ele>242</ele>
        <time>2024-10-10T13:15:55+02:00</time>
      </trkpt>
      <trkpt lat="43.50015" lon="6.91991">
        <ele>238</ele>
        <time>2024-10-10T13:16:15+02:00</time>
      </trkpt>
      <trkpt lat="43.50033" lon="6.91995">
        <ele>235</ele>
        <time>2024-10-10T13:16:35+02:00</time>
      </trkpt>
      <trkpt lat="43.5005" lon="6.91997">
        <ele>232</ele>
        <time>2024-10-10T13:16:55+02:00</time>
      </trkpt>
      <trkpt lat="43.50063" lon="6.92006">
        <ele>228</ele>
        <time>2024-10-10T13:17:15+02:00</time>
      </trkpt>
      <trkpt lat="43.50077" lon="6.92014">
        <ele>224</ele>
        <time>2024-10-10T13:17:50+02:00</time>
      </trkpt>
      <trkpt lat="43.5009" lon="6.92019">
        <ele>219</ele>
        <time>2024-10-10T13:18:05+02:00</time>
      </trkpt>
      <trkpt lat="43.50104" lon="6.92024">
        <ele>215</ele>
        <time>2024-10-10T13:18:25+02:00</time>
      </trkpt>
      <trkpt lat="43.50119" lon="6.92033">
        <ele>210</ele>
        <time>2024-10-10T13:18:45+02:00</time>
      </trkpt>
      <trkpt lat="43.50132" lon="6.92041">
        <ele>206</ele>
        <time>2024-10-10T13:19:05+02:00</time>
      </trkpt>
      <trkpt lat="43.50148" lon="6.92049">
        <ele>202</ele>
        <time>2024-10-10T13:20:05+02:00</time>
      </trkpt>
      <trkpt lat="43.50162" lon="6.92055">
        <ele>198</ele>
        <time>2024-10-10T13:20:35+02:00</time>
      </trkpt>
      <trkpt lat="43.50177" lon="6.92051">
        <ele>195</ele>
        <time>2024-10-10T13:21:40+02:00</time>
      </trkpt>
      <trkpt lat="43.50188" lon="6.92038">
        <ele>192</ele>
        <time>2024-10-10T13:22:05+02:00</time>
      </trkpt>
      <trkpt lat="43.50205" lon="6.92034">
        <ele>189</ele>
        <time>2024-10-10T13:22:30+02:00</time>
      </trkpt>
      <trkpt lat="43.50218" lon="6.92026">
        <ele>187</ele>
        <time>2024-10-10T13:22:45+02:00</time>
      </trkpt>
      <trkpt lat="43.50229" lon="6.92013">
        <ele>184</ele>
        <time>2024-10-10T13:23:15+02:00</time>
      </trkpt>
      <trkpt lat="43.50241" lon="6.91999">
        <ele>181</ele>
        <time>2024-10-10T13:23:35+02:00</time>
      </trkpt>
      <trkpt lat="43.50253" lon="6.91985">
        <ele>178</ele>
        <time>2024-10-10T13:23:55+02:00</time>
      </trkpt>
      <trkpt lat="43.50266" lon="6.91969">
        <ele>175</ele>
        <time>2024-10-10T13:25:00+02:00</time>
      </trkpt>
      <trkpt lat="43.50262" lon="6.91949">
        <ele>172</ele>
        <time>2024-10-10T13:25:20+02:00</time>
      </trkpt>
      <trkpt lat="43.50254" lon="6.91934">
        <ele>169</ele>
        <time>2024-10-10T13:26:10+02:00</time>
      </trkpt>
      <trkpt lat="43.50257" lon="6.91913">
        <ele>167</ele>
        <time>2024-10-10T13:26:45+02:00</time>
      </trkpt>
      <trkpt lat="43.50267" lon="6.91892">
        <ele>164</ele>
        <time>2024-10-10T13:27:25+02:00</time>
      </trkpt>
      <trkpt lat="43.5028" lon="6.91881">
        <ele>162</ele>
        <time>2024-10-10T13:27:45+02:00</time>
      </trkpt>
      <trkpt lat="43.50294" lon="6.91875">
        <ele>160</ele>
        <time>2024-10-10T13:28:15+02:00</time>
      </trkpt>
      <trkpt lat="43.5031" lon="6.91865">
        <ele>158</ele>
        <time>2024-10-10T13:28:45+02:00</time>
      </trkpt>
      <trkpt lat="43.50325" lon="6.9185">
        <ele>156</ele>
        <time>2024-10-10T13:29:20+02:00</time>
      </trkpt>
      <trkpt lat="43.50338" lon="6.91856">
        <ele>154</ele>
        <time>2024-10-10T13:29:45+02:00</time>
      </trkpt>
      <trkpt lat="43.50352" lon="6.91858">
        <ele>153</ele>
        <time>2024-10-10T13:30:05+02:00</time>
      </trkpt>
      <trkpt lat="43.50368" lon="6.91858">
        <ele>152</ele>
        <time>2024-10-10T13:30:25+02:00</time>
      </trkpt>
      <trkpt lat="43.50382" lon="6.9186">
        <ele>151</ele>
        <time>2024-10-10T13:30:45+02:00</time>
      </trkpt>
      <trkpt lat="43.50396" lon="6.91858">
        <ele>150</ele>
        <time>2024-10-10T13:31:10+02:00</time>
      </trkpt>
      <trkpt lat="43.5041" lon="6.91865">
        <ele>150</ele>
        <time>2024-10-10T13:31:30+02:00</time>
      </trkpt>
      <trkpt lat="43.50425" lon="6.91871">
        <ele>149</ele>
        <time>2024-10-10T13:31:55+02:00</time>
      </trkpt>
      <trkpt lat="43.50438" lon="6.91888">
        <ele>149</ele>
        <time>2024-10-10T13:32:15+02:00</time>
      </trkpt>
      <trkpt lat="43.50452" lon="6.91897">
        <ele>147</ele>
        <time>2024-10-10T13:33:55+02:00</time>
      </trkpt>
      <trkpt lat="43.50466" lon="6.91901">
        <ele>146</ele>
        <time>2024-10-10T13:35:15+02:00</time>
      </trkpt>
      <trkpt lat="43.5048" lon="6.91908">
        <ele>145</ele>
        <time>2024-10-10T13:37:15+02:00</time>
      </trkpt>
      <trkpt lat="43.50496" lon="6.91915">
        <ele>144</ele>
        <time>2024-10-10T13:37:55+02:00</time>
      </trkpt>
      <trkpt lat="43.50512" lon="6.91919">
        <ele>142</ele>
        <time>2024-10-10T13:38:25+02:00</time>
      </trkpt>
      <trkpt lat="43.50523" lon="6.91936">
        <ele>141</ele>
        <time>2024-10-10T13:38:50+02:00</time>
      </trkpt>
      <trkpt lat="43.50528" lon="6.91955">
        <ele>140</ele>
        <time>2024-10-10T13:39:15+02:00</time>
      </trkpt>
      <trkpt lat="43.50538" lon="6.91967">
        <ele>140</ele>
        <time>2024-10-10T13:39:45+02:00</time>
      </trkpt>
      <trkpt lat="43.50549" lon="6.91983">
        <ele>139</ele>
        <time>2024-10-10T13:40:10+02:00</time>
      </trkpt>
      <trkpt lat="43.50566" lon="6.91994">
        <ele>139</ele>
        <time>2024-10-10T13:40:30+02:00</time>
      </trkpt>
      <trkpt lat="43.50578" lon="6.92005">
        <ele>139</ele>
        <time>2024-10-10T13:40:45+02:00</time>
      </trkpt>
      <trkpt lat="43.50592" lon="6.92014">
        <ele>139</ele>
        <time>2024-10-10T13:41:00+02:00</time>
      </trkpt>
      <trkpt lat="43.50608" lon="6.92015">
        <ele>139</ele>
        <time>2024-10-10T13:41:20+02:00</time>
      </trkpt>
      <trkpt lat="43.50621" lon="6.92004">
        <ele>139</ele>
        <time>2024-10-10T13:41:45+02:00</time>
      </trkpt>
      <trkpt lat="43.50635" lon="6.91997">
        <ele>138</ele>
        <time>2024-10-10T13:44:15+02:00</time>
      </trkpt>
      <trkpt lat="43.50649" lon="6.91988">
        <ele>137</ele>
        <time>2024-10-10T13:44:30+02:00</time>
      </trkpt>
      <trkpt lat="43.50661" lon="6.91975">
        <ele>137</ele>
        <time>2024-10-10T13:44:45+02:00</time>
      </trkpt>
      <trkpt lat="43.5067" lon="6.91959">
        <ele>135</ele>
        <time>2024-10-10T13:45:00+02:00</time>
      </trkpt>
      <trkpt lat="43.5068" lon="6.91943">
        <ele>134</ele>
        <time>2024-10-10T13:45:15+02:00</time>
      </trkpt>
      <trkpt lat="43.50692" lon="6.91926">
        <ele>133</ele>
        <time>2024-10-10T13:45:30+02:00</time>
      </trkpt>
      <trkpt lat="43.50701" lon="6.91911">
        <ele>132</ele>
        <time>2024-10-10T13:45:45+02:00</time>
      </trkpt>
      <trkpt lat="43.5071" lon="6.9189">
        <ele>132</ele>
        <time>2024-10-10T13:46:00+02:00</time>
      </trkpt>
      <trkpt lat="43.50719" lon="6.91873">
        <ele>131</ele>
        <time>2024-10-10T13:46:15+02:00</time>
      </trkpt>
      <trkpt lat="43.50729" lon="6.91855">
        <ele>130</ele>
        <time>2024-10-10T13:46:35+02:00</time>
      </trkpt>
      <trkpt lat="43.50744" lon="6.91836">
        <ele>129</ele>
        <time>2024-10-10T13:47:00+02:00</time>
      </trkpt>
      <trkpt lat="43.50751" lon="6.91809">
        <ele>128</ele>
        <time>2024-10-10T13:47:15+02:00</time>
      </trkpt>
      <trkpt lat="43.50757" lon="6.91788">
        <ele>127</ele>
        <time>2024-10-10T13:47:30+02:00</time>
      </trkpt>
      <trkpt lat="43.50762" lon="6.91769">
        <ele>126</ele>
        <time>2024-10-10T13:47:45+02:00</time>
      </trkpt>
      <trkpt lat="43.50769" lon="6.91749">
        <ele>126</ele>
        <time>2024-10-10T13:48:00+02:00</time>
      </trkpt>
      <trkpt lat="43.50779" lon="6.9173">
        <ele>125</ele>
        <time>2024-10-10T13:48:15+02:00</time>
      </trkpt>
      <trkpt lat="43.50772" lon="6.91712">
        <ele>125</ele>
        <time>2024-10-10T13:48:40+02:00</time>
      </trkpt>
      <trkpt lat="43.50753" lon="6.91724">
        <ele>125</ele>
        <time>2024-10-10T13:49:55+02:00</time>
      </trkpt>
      <trkpt lat="43.50744" lon="6.9171">
        <ele>125</ele>
        <time>2024-10-10T13:50:35+02:00</time>
      </trkpt>
      <trkpt lat="43.50745" lon="6.91685">
        <ele>125</ele>
        <time>2024-10-10T13:50:55+02:00</time>
      </trkpt>
      <trkpt lat="43.50744" lon="6.91664">
        <ele>126</ele>
        <time>2024-10-10T13:51:10+02:00</time>
      </trkpt>
      <trkpt lat="43.50737" lon="6.91645">
        <ele>126</ele>
        <time>2024-10-10T13:51:25+02:00</time>
      </trkpt>
      <trkpt lat="43.50722" lon="6.9163">
        <ele>128</ele>
        <time>2024-10-10T13:51:40+02:00</time>
      </trkpt>
      <trkpt lat="43.50709" lon="6.9162">
        <ele>130</ele>
        <time>2024-10-10T13:51:55+02:00</time>
      </trkpt>
      <trkpt lat="43.50697" lon="6.91611">
        <ele>132</ele>
        <time>2024-10-10T13:52:10+02:00</time>
      </trkpt>
      <trkpt lat="43.50686" lon="6.91601">
        <ele>135</ele>
        <time>2024-10-10T13:52:25+02:00</time>
      </trkpt>
      <trkpt lat="43.50673" lon="6.91589">
        <ele>138</ele>
        <time>2024-10-10T13:52:40+02:00</time>
      </trkpt>
      <trkpt lat="43.50659" lon="6.91578">
        <ele>141</ele>
        <time>2024-10-10T13:53:00+02:00</time>
      </trkpt>
      <trkpt lat="43.50648" lon="6.91561">
        <ele>144</ele>
        <time>2024-10-10T13:53:20+02:00</time>
      </trkpt>
      <trkpt lat="43.50649" lon="6.9154">
        <ele>145</ele>
        <time>2024-10-10T13:53:40+02:00</time>
      </trkpt>
      <trkpt lat="43.50651" lon="6.91518">
        <ele>147</ele>
        <time>2024-10-10T13:54:00+02:00</time>
      </trkpt>
      <trkpt lat="43.50649" lon="6.91498">
        <ele>148</ele>
        <time>2024-10-10T13:54:20+02:00</time>
      </trkpt>
      <trkpt lat="43.50639" lon="6.91486">
        <ele>149</ele>
        <time>2024-10-10T13:55:20+02:00</time>
      </trkpt>
      <trkpt lat="43.50626" lon="6.91474">
        <ele>149</ele>
        <time>2024-10-10T13:57:15+02:00</time>
      </trkpt>
      <trkpt lat="43.50621" lon="6.91452">
        <ele>149</ele>
        <time>2024-10-10T13:57:35+02:00</time>
      </trkpt>
      <trkpt lat="43.5062" lon="6.91429">
        <ele>148</ele>
        <time>2024-10-10T13:57:50+02:00</time>
      </trkpt>
      <trkpt lat="43.50627" lon="6.91411">
        <ele>148</ele>
        <time>2024-10-10T13:58:05+02:00</time>
      </trkpt>
      <trkpt lat="43.50635" lon="6.91387">
        <ele>148</ele>
        <time>2024-10-10T13:58:25+02:00</time>
      </trkpt>
      <trkpt lat="43.50635" lon="6.91363">
        <ele>147</ele>
        <time>2024-10-10T13:58:40+02:00</time>
      </trkpt>
      <trkpt lat="43.50627" lon="6.9134">
        <ele>146</ele>
        <time>2024-10-10T13:58:55+02:00</time>
      </trkpt>
      <trkpt lat="43.50616" lon="6.91318">
        <ele>145</ele>
        <time>2024-10-10T13:59:20+02:00</time>
      </trkpt>
      <trkpt lat="43.50613" lon="6.91295">
        <ele>144</ele>
        <time>2024-10-10T13:59:35+02:00</time>
      </trkpt>
      <trkpt lat="43.50625" lon="6.9128">
        <ele>144</ele>
        <time>2024-10-10T13:59:50+02:00</time>
      </trkpt>
      <trkpt lat="43.50625" lon="6.91255">
        <ele>143</ele>
        <time>2024-10-10T14:00:20+02:00</time>
      </trkpt>
      <trkpt lat="43.50616" lon="6.91235">
        <ele>142</ele>
        <time>2024-10-10T14:00:35+02:00</time>
      </trkpt>
      <trkpt lat="43.50603" lon="6.91216">
        <ele>142</ele>
        <time>2024-10-10T14:00:50+02:00</time>
      </trkpt>
      <trkpt lat="43.50587" lon="6.91204">
        <ele>141</ele>
        <time>2024-10-10T14:01:05+02:00</time>
      </trkpt>
      <trkpt lat="43.50571" lon="6.91194">
        <ele>141</ele>
        <time>2024-10-10T14:01:20+02:00</time>
      </trkpt>
      <trkpt lat="43.50556" lon="6.9118">
        <ele>140</ele>
        <time>2024-10-10T14:01:35+02:00</time>
      </trkpt>
      <trkpt lat="43.50543" lon="6.91167">
        <ele>140</ele>
        <time>2024-10-10T14:01:50+02:00</time>
      </trkpt>
      <trkpt lat="43.50526" lon="6.91162">
        <ele>139</ele>
        <time>2024-10-10T14:02:05+02:00</time>
      </trkpt>
      <trkpt lat="43.50509" lon="6.91174">
        <ele>138</ele>
        <time>2024-10-10T14:02:20+02:00</time>
      </trkpt>
      <trkpt lat="43.50496" lon="6.91161">
        <ele>136</ele>
        <time>2024-10-10T14:02:40+02:00</time>
      </trkpt>
      <trkpt lat="43.50483" lon="6.9114">
        <ele>133</ele>
        <time>2024-10-10T14:02:55+02:00</time>
      </trkpt>
      <trkpt lat="43.50468" lon="6.91128">
        <ele>132</ele>
        <time>2024-10-10T14:03:10+02:00</time>
      </trkpt>
      <trkpt lat="43.50483" lon="6.91135">
        <ele>130</ele>
        <time>2024-10-10T14:04:45+02:00</time>
      </trkpt>
      <trkpt lat="43.50499" lon="6.91144">
        <ele>128</ele>
        <time>2024-10-10T14:05:00+02:00</time>
      </trkpt>
      <trkpt lat="43.50516" lon="6.91144">
        <ele>127</ele>
        <time>2024-10-10T14:05:20+02:00</time>
      </trkpt>
      <trkpt lat="43.50526" lon="6.91127">
        <ele>126</ele>
        <time>2024-10-10T14:05:35+02:00</time>
      </trkpt>
      <trkpt lat="43.50541" lon="6.91122">
        <ele>124</ele>
        <time>2024-10-10T14:05:50+02:00</time>
      </trkpt>
      <trkpt lat="43.50558" lon="6.91123">
        <ele>123</ele>
        <time>2024-10-10T14:06:05+02:00</time>
      </trkpt>
      <trkpt lat="43.50577" lon="6.91122">
        <ele>123</ele>
        <time>2024-10-10T14:06:20+02:00</time>
      </trkpt>
      <trkpt lat="43.50596" lon="6.9112">
        <ele>122</ele>
        <time>2024-10-10T14:06:35+02:00</time>
      </trkpt>
      <trkpt lat="43.5061" lon="6.91117">
        <ele>121</ele>
        <time>2024-10-10T14:06:50+02:00</time>
      </trkpt>
      <trkpt lat="43.50623" lon="6.91114">
        <ele>120</ele>
        <time>2024-10-10T14:07:00+02:00</time>
      </trkpt>
      <trkpt lat="43.50641" lon="6.91115">
        <ele>119</ele>
        <time>2024-10-10T14:07:15+02:00</time>
      </trkpt>
      <trkpt lat="43.50657" lon="6.91119">
        <ele>117</ele>
        <time>2024-10-10T14:07:30+02:00</time>
      </trkpt>
      <trkpt lat="43.50673" lon="6.91116">
        <ele>116</ele>
        <time>2024-10-10T14:07:45+02:00</time>
      </trkpt>
      <trkpt lat="43.50692" lon="6.91117">
        <ele>114</ele>
        <time>2024-10-10T14:08:00+02:00</time>
      </trkpt>
      <trkpt lat="43.50711" lon="6.91116">
        <ele>113</ele>
        <time>2024-10-10T14:08:15+02:00</time>
      </trkpt>
      <trkpt lat="43.50728" lon="6.91111">
        <ele>112</ele>
        <time>2024-10-10T14:08:30+02:00</time>
      </trkpt>
      <trkpt lat="43.50744" lon="6.91101">
        <ele>111</ele>
        <time>2024-10-10T14:08:45+02:00</time>
      </trkpt>
      <trkpt lat="43.50761" lon="6.91096">
        <ele>110</ele>
        <time>2024-10-10T14:09:00+02:00</time>
      </trkpt>
      <trkpt lat="43.50778" lon="6.91092">
        <ele>108</ele>
        <time>2024-10-10T14:09:15+02:00</time>
      </trkpt>
      <trkpt lat="43.50796" lon="6.91089">
        <ele>106</ele>
        <time>2024-10-10T14:09:30+02:00</time>
      </trkpt>
      <trkpt lat="43.50816" lon="6.91084">
        <ele>105</ele>
        <time>2024-10-10T14:09:45+02:00</time>
      </trkpt>
      <trkpt lat="43.50834" lon="6.9108">
        <ele>104</ele>
        <time>2024-10-10T14:10:00+02:00</time>
      </trkpt>
      <trkpt lat="43.50847" lon="6.91069">
        <ele>103</ele>
        <time>2024-10-10T14:10:15+02:00</time>
      </trkpt>
      <trkpt lat="43.5086" lon="6.91059">
        <ele>103</ele>
        <time>2024-10-10T14:10:35+02:00</time>
      </trkpt>
      <trkpt lat="43.50863" lon="6.9104">
        <ele>102</ele>
        <time>2024-10-10T14:11:15+02:00</time>
      </trkpt>
      <trkpt lat="43.50854" lon="6.91055">
        <ele>102</ele>
        <time>2024-10-10T14:11:55+02:00</time>
      </trkpt>
      <trkpt lat="43.5084" lon="6.91052">
        <ele>103</ele>
        <time>2024-10-10T14:12:45+02:00</time>
      </trkpt>
      <trkpt lat="43.50843" lon="6.91071">
        <ele>104</ele>
        <time>2024-10-10T14:17:20+02:00</time>
      </trkpt>
      <trkpt lat="43.50858" lon="6.91075">
        <ele>105</ele>
        <time>2024-10-10T14:17:35+02:00</time>
      </trkpt>
      <trkpt lat="43.50873" lon="6.91071">
        <ele>105</ele>
        <time>2024-10-10T14:17:50+02:00</time>
      </trkpt>
      <trkpt lat="43.5089" lon="6.9107">
        <ele>105</ele>
        <time>2024-10-10T14:18:05+02:00</time>
      </trkpt>
      <trkpt lat="43.50905" lon="6.91072">
        <ele>105</ele>
        <time>2024-10-10T14:18:20+02:00</time>
      </trkpt>
      <trkpt lat="43.50919" lon="6.91073">
        <ele>105</ele>
        <time>2024-10-10T14:18:35+02:00</time>
      </trkpt>
      <trkpt lat="43.50933" lon="6.91072">
        <ele>104</ele>
        <time>2024-10-10T14:18:50+02:00</time>
      </trkpt>
      <trkpt lat="43.50947" lon="6.91079">
        <ele>103</ele>
        <time>2024-10-10T14:19:05+02:00</time>
      </trkpt>
      <trkpt lat="43.50965" lon="6.91078">
        <ele>102</ele>
        <time>2024-10-10T14:19:20+02:00</time>
      </trkpt>
      <trkpt lat="43.5098" lon="6.91069">
        <ele>101</ele>
        <time>2024-10-10T14:19:35+02:00</time>
      </trkpt>
      <trkpt lat="43.50996" lon="6.91074">
        <ele>100</ele>
        <time>2024-10-10T14:19:50+02:00</time>
      </trkpt>
      <trkpt lat="43.51009" lon="6.91064">
        <ele>100</ele>
        <time>2024-10-10T14:20:05+02:00</time>
      </trkpt>
      <trkpt lat="43.51018" lon="6.91041">
        <ele>99</ele>
        <time>2024-10-10T14:20:20+02:00</time>
      </trkpt>
      <trkpt lat="43.51024" lon="6.91023">
        <ele>98</ele>
        <time>2024-10-10T14:20:35+02:00</time>
      </trkpt>
      <trkpt lat="43.51031" lon="6.91002">
        <ele>98</ele>
        <time>2024-10-10T14:20:50+02:00</time>
      </trkpt>
      <trkpt lat="43.51045" lon="6.90995">
        <ele>98</ele>
        <time>2024-10-10T14:21:05+02:00</time>
      </trkpt>
      <trkpt lat="43.5106" lon="6.90985">
        <ele>98</ele>
        <time>2024-10-10T14:21:20+02:00</time>
      </trkpt>
      <trkpt lat="43.51075" lon="6.90981">
        <ele>97</ele>
        <time>2024-10-10T14:21:35+02:00</time>
      </trkpt>
      <trkpt lat="43.51092" lon="6.90979">
        <ele>97</ele>
        <time>2024-10-10T14:21:50+02:00</time>
      </trkpt>
      <trkpt lat="43.51102" lon="6.90961">
        <ele>96</ele>
        <time>2024-10-10T14:22:05+02:00</time>
      </trkpt>
      <trkpt lat="43.5111" lon="6.90942">
        <ele>96</ele>
        <time>2024-10-10T14:22:20+02:00</time>
      </trkpt>
      <trkpt lat="43.51125" lon="6.90929">
        <ele>95</ele>
        <time>2024-10-10T14:22:35+02:00</time>
      </trkpt>
      <trkpt lat="43.51138" lon="6.90917">
        <ele>95</ele>
        <time>2024-10-10T14:22:50+02:00</time>
      </trkpt>
      <trkpt lat="43.51153" lon="6.90907">
        <ele>94</ele>
        <time>2024-10-10T14:23:05+02:00</time>
      </trkpt>
      <trkpt lat="43.5117" lon="6.90898">
        <ele>94</ele>
        <time>2024-10-10T14:23:20+02:00</time>
      </trkpt>
      <trkpt lat="43.51185" lon="6.90886">
        <ele>93</ele>
        <time>2024-10-10T14:23:35+02:00</time>
      </trkpt>
      <trkpt lat="43.512" lon="6.90876">
        <ele>93</ele>
        <time>2024-10-10T14:23:50+02:00</time>
      </trkpt>
      <trkpt lat="43.51217" lon="6.90868">
        <ele>93</ele>
        <time>2024-10-10T14:24:05+02:00</time>
      </trkpt>
      <trkpt lat="43.51234" lon="6.90869">
        <ele>92</ele>
        <time>2024-10-10T14:24:20+02:00</time>
      </trkpt>
      <trkpt lat="43.51247" lon="6.90862">
        <ele>92</ele>
        <time>2024-10-10T14:24:35+02:00</time>
      </trkpt>
      <trkpt lat="43.51259" lon="6.90851">
        <ele>92</ele>
        <time>2024-10-10T14:24:50+02:00</time>
      </trkpt>
      <trkpt lat="43.51266" lon="6.90827">
        <ele>92</ele>
        <time>2024-10-10T14:25:05+02:00</time>
      </trkpt>
      <trkpt lat="43.5127" lon="6.90808">
        <ele>93</ele>
        <time>2024-10-10T14:25:20+02:00</time>
      </trkpt>
      <trkpt lat="43.51285" lon="6.90801">
        <ele>94</ele>
        <time>2024-10-10T14:25:40+02:00</time>
      </trkpt>
      <trkpt lat="43.51296" lon="6.90788">
        <ele>96</ele>
        <time>2024-10-10T14:26:00+02:00</time>
      </trkpt>
      <trkpt lat="43.51306" lon="6.90806">
        <ele>97</ele>
        <time>2024-10-10T14:26:50+02:00</time>
      </trkpt>
      <trkpt lat="43.51311" lon="6.90824">
        <ele>99</ele>
        <time>2024-10-10T14:27:05+02:00</time>
      </trkpt>
      <trkpt lat="43.51309" lon="6.90844">
        <ele>100</ele>
        <time>2024-10-10T14:28:30+02:00</time>
      </trkpt>
      <trkpt lat="43.5131" lon="6.90865">
        <ele>101</ele>
        <time>2024-10-10T14:29:35+02:00</time>
      </trkpt>
      <trkpt lat="43.51302" lon="6.90881">
        <ele>102</ele>
        <time>2024-10-10T14:31:15+02:00</time>
      </trkpt>
      <trkpt lat="43.51304" lon="6.90899">
        <ele>102</ele>
        <time>2024-10-10T14:31:30+02:00</time>
      </trkpt>
      <trkpt lat="43.51291" lon="6.90906">
        <ele>101</ele>
        <time>2024-10-10T14:32:00+02:00</time>
      </trkpt>
      <trkpt lat="43.51294" lon="6.9093">
        <ele>100</ele>
        <time>2024-10-10T14:32:20+02:00</time>
      </trkpt>
      <trkpt lat="43.51279" lon="6.90928">
        <ele>98</ele>
        <time>2024-10-10T14:33:00+02:00</time>
      </trkpt>
      <trkpt lat="43.5127" lon="6.90909">
        <ele>97</ele>
        <time>2024-10-10T14:33:15+02:00</time>
      </trkpt>
      <trkpt lat="43.51265" lon="6.90889">
        <ele>95</ele>
        <time>2024-10-10T14:33:30+02:00</time>
      </trkpt>
      <trkpt lat="43.51262" lon="6.90869">
        <ele>93</ele>
        <time>2024-10-10T14:33:45+02:00</time>
      </trkpt>
      <trkpt lat="43.5126" lon="6.90849">
        <ele>91</ele>
        <time>2024-10-10T14:34:00+02:00</time>
      </trkpt>
      <trkpt lat="43.51262" lon="6.90829">
        <ele>90</ele>
        <time>2024-10-10T14:34:15+02:00</time>
      </trkpt>
      <trkpt lat="43.51264" lon="6.9081">
        <ele>88</ele>
        <time>2024-10-10T14:34:30+02:00</time>
      </trkpt>
      <trkpt lat="43.51268" lon="6.90786">
        <ele>86</ele>
        <time>2024-10-10T14:35:00+02:00</time>
      </trkpt>
      <trkpt lat="43.51283" lon="6.90772">
        <ele>85</ele>
        <time>2024-10-10T14:35:20+02:00</time>
      </trkpt>
      <trkpt lat="43.51298" lon="6.90763">
        <ele>84</ele>
        <time>2024-10-10T14:35:40+02:00</time>
      </trkpt>
      <trkpt lat="43.51309" lon="6.90752">
        <ele>83</ele>
        <time>2024-10-10T14:36:25+02:00</time>
      </trkpt>
      <trkpt lat="43.51327" lon="6.9075">
        <ele>82</ele>
        <time>2024-10-10T14:36:40+02:00</time>
      </trkpt>
      <trkpt lat="43.51342" lon="6.90752">
        <ele>80</ele>
        <time>2024-10-10T14:36:55+02:00</time>
      </trkpt>
      <trkpt lat="43.5136" lon="6.90756">
        <ele>80</ele>
        <time>2024-10-10T14:37:10+02:00</time>
      </trkpt>
      <trkpt lat="43.51377" lon="6.90762">
        <ele>79</ele>
        <time>2024-10-10T14:37:25+02:00</time>
      </trkpt>
      <trkpt lat="43.51395" lon="6.90761">
        <ele>79</ele>
        <time>2024-10-10T14:37:40+02:00</time>
      </trkpt>
      <trkpt lat="43.51412" lon="6.90754">
        <ele>79</ele>
        <time>2024-10-10T14:37:55+02:00</time>
      </trkpt>
      <trkpt lat="43.51428" lon="6.90741">
        <ele>78</ele>
        <time>2024-10-10T14:38:10+02:00</time>
      </trkpt>
      <trkpt lat="43.51439" lon="6.90729">
        <ele>78</ele>
        <time>2024-10-10T14:38:20+02:00</time>
      </trkpt>
      <trkpt lat="43.51454" lon="6.90716">
        <ele>78</ele>
        <time>2024-10-10T14:38:35+02:00</time>
      </trkpt>
      <trkpt lat="43.51471" lon="6.90708">
        <ele>78</ele>
        <time>2024-10-10T14:38:50+02:00</time>
      </trkpt>
      <trkpt lat="43.51488" lon="6.907">
        <ele>79</ele>
        <time>2024-10-10T14:39:05+02:00</time>
      </trkpt>
      <trkpt lat="43.51505" lon="6.90696">
        <ele>79</ele>
        <time>2024-10-10T14:39:20+02:00</time>
      </trkpt>
      <trkpt lat="43.51523" lon="6.90692">
        <ele>79</ele>
        <time>2024-10-10T14:39:40+02:00</time>
      </trkpt>
      <trkpt lat="43.5154" lon="6.90695">
        <ele>78</ele>
        <time>2024-10-10T14:39:55+02:00</time>
      </trkpt>
      <trkpt lat="43.51558" lon="6.90698">
        <ele>78</ele>
        <time>2024-10-10T14:40:10+02:00</time>
      </trkpt>
      <trkpt lat="43.5157" lon="6.90715">
        <ele>77</ele>
        <time>2024-10-10T14:40:25+02:00</time>
      </trkpt>
      <trkpt lat="43.51581" lon="6.90726">
        <ele>75</ele>
        <time>2024-10-10T14:40:35+02:00</time>
      </trkpt>
      <trkpt lat="43.51596" lon="6.90735">
        <ele>74</ele>
        <time>2024-10-10T14:40:50+02:00</time>
      </trkpt>
      <trkpt lat="43.51613" lon="6.90744">
        <ele>73</ele>
        <time>2024-10-10T14:41:05+02:00</time>
      </trkpt>
      <trkpt lat="43.51629" lon="6.90755">
        <ele>72</ele>
        <time>2024-10-10T14:41:20+02:00</time>
      </trkpt>
      <trkpt lat="43.51645" lon="6.90766">
        <ele>73</ele>
        <time>2024-10-10T14:41:35+02:00</time>
      </trkpt>
      <trkpt lat="43.51657" lon="6.9078">
        <ele>72</ele>
        <time>2024-10-10T14:41:45+02:00</time>
      </trkpt>
      <trkpt lat="43.51674" lon="6.90783">
        <ele>70</ele>
        <time>2024-10-10T14:42:00+02:00</time>
      </trkpt>
      <trkpt lat="43.51691" lon="6.90796">
        <ele>70</ele>
        <time>2024-10-10T14:42:15+02:00</time>
      </trkpt>
      <trkpt lat="43.51706" lon="6.90819">
        <ele>69</ele>
        <time>2024-10-10T14:42:30+02:00</time>
      </trkpt>
      <trkpt lat="43.51722" lon="6.90824">
        <ele>68</ele>
        <time>2024-10-10T14:42:45+02:00</time>
      </trkpt>
      <trkpt lat="43.51737" lon="6.90809">
        <ele>66</ele>
        <time>2024-10-10T14:43:00+02:00</time>
      </trkpt>
      <trkpt lat="43.51745" lon="6.90791">
        <ele>64</ele>
        <time>2024-10-10T14:43:15+02:00</time>
      </trkpt>
      <trkpt lat="43.51754" lon="6.90776">
        <ele>63</ele>
        <time>2024-10-10T14:43:30+02:00</time>
      </trkpt>
      <trkpt lat="43.51766" lon="6.90763">
        <ele>62</ele>
        <time>2024-10-10T14:43:45+02:00</time>
      </trkpt>
      <trkpt lat="43.51777" lon="6.90752">
        <ele>61</ele>
        <time>2024-10-10T14:44:10+02:00</time>
      </trkpt>
      <trkpt lat="43.51793" lon="6.90756">
        <ele>61</ele>
        <time>2024-10-10T14:44:25+02:00</time>
      </trkpt>
      <trkpt lat="43.51806" lon="6.90757">
        <ele>60</ele>
        <time>2024-10-10T14:44:35+02:00</time>
      </trkpt>
      <trkpt lat="43.51823" lon="6.90762">
        <ele>60</ele>
        <time>2024-10-10T14:44:50+02:00</time>
      </trkpt>
      <trkpt lat="43.51837" lon="6.90772">
        <ele>60</ele>
        <time>2024-10-10T14:45:05+02:00</time>
      </trkpt>
      <trkpt lat="43.5185" lon="6.90783">
        <ele>59</ele>
        <time>2024-10-10T14:45:20+02:00</time>
      </trkpt>
      <trkpt lat="43.51862" lon="6.90799">
        <ele>59</ele>
        <time>2024-10-10T14:45:35+02:00</time>
      </trkpt>
      <trkpt lat="43.51876" lon="6.90812">
        <ele>58</ele>
        <time>2024-10-10T14:45:50+02:00</time>
      </trkpt>
      <trkpt lat="43.5189" lon="6.90828">
        <ele>58</ele>
        <time>2024-10-10T14:46:05+02:00</time>
      </trkpt>
      <trkpt lat="43.51905" lon="6.90839">
        <ele>57</ele>
        <time>2024-10-10T14:46:20+02:00</time>
      </trkpt>
      <trkpt lat="43.51917" lon="6.90851">
        <ele>57</ele>
        <time>2024-10-10T14:46:35+02:00</time>
      </trkpt>
      <trkpt lat="43.51929" lon="6.90867">
        <ele>57</ele>
        <time>2024-10-10T14:46:50+02:00</time>
      </trkpt>
      <trkpt lat="43.51941" lon="6.90884">
        <ele>57</ele>
        <time>2024-10-10T14:47:05+02:00</time>
      </trkpt>
      <trkpt lat="43.51957" lon="6.90898">
        <ele>57</ele>
        <time>2024-10-10T14:47:20+02:00</time>
      </trkpt>
      <trkpt lat="43.51969" lon="6.90918">
        <ele>57</ele>
        <time>2024-10-10T14:47:35+02:00</time>
      </trkpt>
      <trkpt lat="43.51985" lon="6.90934">
        <ele>57</ele>
        <time>2024-10-10T14:47:50+02:00</time>
      </trkpt>
      <trkpt lat="43.52003" lon="6.90942">
        <ele>57</ele>
        <time>2024-10-10T14:48:05+02:00</time>
      </trkpt>
      <trkpt lat="43.5202" lon="6.9094">
        <ele>56</ele>
        <time>2024-10-10T14:48:20+02:00</time>
      </trkpt>
      <trkpt lat="43.52037" lon="6.9094">
        <ele>56</ele>
        <time>2024-10-10T14:48:35+02:00</time>
      </trkpt>
      <trkpt lat="43.52056" lon="6.90937">
        <ele>56</ele>
        <time>2024-10-10T14:48:50+02:00</time>
      </trkpt>
      <trkpt lat="43.52073" lon="6.9093">
        <ele>55</ele>
        <time>2024-10-10T14:49:05+02:00</time>
      </trkpt>
      <trkpt lat="43.52092" lon="6.90923">
        <ele>54</ele>
        <time>2024-10-10T14:49:20+02:00</time>
      </trkpt>
      <trkpt lat="43.5211" lon="6.90922">
        <ele>55</ele>
        <time>2024-10-10T14:49:35+02:00</time>
      </trkpt>
      <trkpt lat="43.52129" lon="6.90925">
        <ele>55</ele>
        <time>2024-10-10T14:49:50+02:00</time>
      </trkpt>
      <trkpt lat="43.52145" lon="6.90923">
        <ele>55</ele>
        <time>2024-10-10T14:50:05+02:00</time>
      </trkpt>
      <trkpt lat="43.52163" lon="6.90928">
        <ele>56</ele>
        <time>2024-10-10T14:50:20+02:00</time>
      </trkpt>
      <trkpt lat="43.5218" lon="6.90931">
        <ele>56</ele>
        <time>2024-10-10T14:50:35+02:00</time>
      </trkpt>
      <trkpt lat="43.52196" lon="6.90932">
        <ele>56</ele>
        <time>2024-10-10T14:50:45+02:00</time>
      </trkpt>
      <trkpt lat="43.52209" lon="6.90938">
        <ele>56</ele>
        <time>2024-10-10T14:54:05+02:00</time>
      </trkpt>
      <trkpt lat="43.52226" lon="6.90937">
        <ele>56</ele>
        <time>2024-10-10T14:54:20+02:00</time>
      </trkpt>
      <trkpt lat="43.52243" lon="6.90939">
        <ele>56</ele>
        <time>2024-10-10T14:54:35+02:00</time>
      </trkpt>
      <trkpt lat="43.52262" lon="6.90934">
        <ele>55</ele>
        <time>2024-10-10T14:54:50+02:00</time>
      </trkpt>
      <trkpt lat="43.52277" lon="6.90935">
        <ele>55</ele>
        <time>2024-10-10T14:55:05+02:00</time>
      </trkpt>
      <trkpt lat="43.52291" lon="6.9094">
        <ele>55</ele>
        <time>2024-10-10T14:55:15+02:00</time>
      </trkpt>
      <trkpt lat="43.52306" lon="6.9095">
        <ele>55</ele>
        <time>2024-10-10T14:55:30+02:00</time>
      </trkpt>
      <trkpt lat="43.52321" lon="6.90961">
        <ele>55</ele>
        <time>2024-10-10T14:55:45+02:00</time>
      </trkpt>
      <trkpt lat="43.52335" lon="6.90976">
        <ele>55</ele>
        <time>2024-10-10T14:56:00+02:00</time>
      </trkpt>
      <trkpt lat="43.5235" lon="6.90992">
        <ele>55</ele>
        <time>2024-10-10T14:56:15+02:00</time>
      </trkpt>
      <trkpt lat="43.52361" lon="6.91011">
        <ele>55</ele>
        <time>2024-10-10T14:56:30+02:00</time>
      </trkpt>
      <trkpt lat="43.52374" lon="6.91027">
        <ele>55</ele>
        <time>2024-10-10T14:56:44+02:00</time>
      </trkpt>
      <trkpt lat="43.52389" lon="6.91038">
        <ele>55</ele>
        <time>2024-10-10T14:56:59+02:00</time>
      </trkpt>
      <trkpt lat="43.52409" lon="6.91043">
        <ele>55</ele>
        <time>2024-10-10T14:57:14+02:00</time>
      </trkpt>
      <trkpt lat="43.52425" lon="6.91052">
        <ele>56</ele>
        <time>2024-10-10T14:57:29+02:00</time>
      </trkpt>
      <trkpt lat="43.52436" lon="6.91074">
        <ele>56</ele>
        <time>2024-10-10T14:57:49+02:00</time>
      </trkpt>
      <trkpt lat="43.52445" lon="6.91094">
        <ele>57</ele>
        <time>2024-10-10T14:58:04+02:00</time>
      </trkpt>
      <trkpt lat="43.52455" lon="6.91115">
        <ele>56</ele>
        <time>2024-10-10T14:58:19+02:00</time>
      </trkpt>
      <trkpt lat="43.52463" lon="6.91135">
        <ele>55</ele>
        <time>2024-10-10T14:58:34+02:00</time>
      </trkpt>
      <trkpt lat="43.52468" lon="6.9116">
        <ele>56</ele>
        <time>2024-10-10T14:58:49+02:00</time>
      </trkpt>
      <trkpt lat="43.52475" lon="6.91179">
        <ele>58</ele>
        <time>2024-10-10T14:59:04+02:00</time>
      </trkpt>
      <trkpt lat="43.52479" lon="6.91197">
        <ele>57</ele>
        <time>2024-10-10T14:59:14+02:00</time>
      </trkpt>
      <trkpt lat="43.52485" lon="6.91217">
        <ele>58</ele>
        <time>2024-10-10T14:59:29+02:00</time>
      </trkpt>
    </trkseg>
  </trk>
</gpx>